UAE29E ULLI-OMDB
Flight info
| Callsign | UAE29E |
|---|---|
| Flight time | 6h 26m |
| Altitude | 35000 |
| Route | SUGIN1C SUGIN T873 NIRGI T73 DESUD P164 NENEL/K0911F370 P164 ROKUR T784 OTKOL T787 OKSUD T778 MOF M161 URL M158 ATR/K0906F380 W324 AKT/K0895F370 P574 RUTIL/N0482F370 P574 ULDUS N39 DEMBA/N0483F390 N39 OBRIX M715 PURKI W32 SRJ L430 TAVNO/N0490F380 M324 PATAT/N0503F340 L519 PUVAL |
| Aircraft | B77W/H-SDE1E2E3FGHIJ2J3J4J5M1RWXY/LB1D1 |
Departure
| Time | 2026-04-25 20:27 |
|---|---|
| Airport | Pulkovo Airport (ULLI) |
Arrival
| Time | 2026-04-26 02:53 |
|---|---|
| Airport | Dubai International Airport (OMDB) |
| Time | Latitude | Longitude | Altitude | Speed | Heading |
|---|---|---|---|---|---|
| 2026-04-25 19:46 | 59.80110 | 30.26854 | 0 ft | 0 kts | 107° |
| 2026-04-25 20:17 | 59.80113 | 30.26835 | 91 ft | 2 kts | 107° |
| 2026-04-25 20:17 | 59.80118 | 30.26804 | 90 ft | 2 kts | 107° |
| 2026-04-25 20:17 | 59.80123 | 30.26768 | 89 ft | 3 kts | 103° |
| 2026-04-25 20:18 | 59.80127 | 30.26732 | 90 ft | 3 kts | 94° |
| 2026-04-25 20:18 | 59.80121 | 30.26678 | 90 ft | 4 kts | 54° |
| 2026-04-25 20:18 | 59.80100 | 30.26640 | 89 ft | 4 kts | 22° |
| 2026-04-25 20:18 | 59.80096 | 30.26637 | 89 ft | 0 kts | 18° |
| 2026-04-25 20:20 | 59.80098 | 30.26638 | 89 ft | 2 kts | 18° |
| 2026-04-25 20:21 | 59.80128 | 30.26659 | 89 ft | 8 kts | 20° |
| 2026-04-25 20:21 | 59.80205 | 30.26709 | 87 ft | 12 kts | 17° |
| 2026-04-25 20:21 | 59.80306 | 30.26769 | 90 ft | 13 kts | 17° |
| 2026-04-25 20:21 | 59.80379 | 30.26853 | 88 ft | 11 kts | 67° |
| 2026-04-25 20:22 | 59.80371 | 30.27026 | 89 ft | 15 kts | 106° |
| 2026-04-25 20:22 | 59.80349 | 30.27174 | 86 ft | 18 kts | 106° |
| 2026-04-25 20:22 | 59.80297 | 30.27521 | 89 ft | 20 kts | 106° |
| 2026-04-25 20:22 | 59.80253 | 30.27813 | 86 ft | 24 kts | 106° |
| 2026-04-25 20:23 | 59.80206 | 30.28130 | 87 ft | 16 kts | 106° |
| 2026-04-25 20:23 | 59.80170 | 30.28373 | 86 ft | 20 kts | 107° |
| 2026-04-25 20:23 | 59.80128 | 30.28653 | 88 ft | 22 kts | 105° |
| 2026-04-25 20:23 | 59.80087 | 30.28925 | 87 ft | 19 kts | 107° |
| 2026-04-25 20:24 | 59.80048 | 30.29188 | 85 ft | 21 kts | 106° |
| 2026-04-25 20:24 | 59.80013 | 30.29422 | 86 ft | 15 kts | 106° |
| 2026-04-25 20:24 | 59.79982 | 30.29635 | 83 ft | 18 kts | 105° |
| 2026-04-25 20:24 | 59.79950 | 30.29847 | 84 ft | 16 kts | 107° |
| 2026-04-25 20:25 | 59.79964 | 30.30072 | 86 ft | 18 kts | 55° |
| 2026-04-25 20:25 | 59.79980 | 30.30111 | 83 ft | 0 kts | 48° |
| 2026-04-25 20:26 | 59.80025 | 30.30202 | 85 ft | 19 kts | 45° |
| 2026-04-25 20:26 | 59.80112 | 30.30237 | 85 ft | 16 kts | 311° |
| 2026-04-25 20:26 | 59.80165 | 30.29928 | 83 ft | 30 kts | 287° |
| 2026-04-25 20:26 | 59.80298 | 30.29056 | 85 ft | 110 kts | 287° |
| 2026-04-25 20:27 | 59.80602 | 30.27028 | 89 ft | 196 kts | 286° |
| 2026-04-25 20:27 | 59.81031 | 30.24184 | 741 ft | 225 kts | 286° |
| 2026-04-25 20:27 | 59.81474 | 30.21230 | 2115 ft | 218 kts | 283° |
| 2026-04-25 20:27 | 59.81896 | 30.18362 | 2956 ft | 214 kts | 283° |
| 2026-04-25 20:28 | 59.82319 | 30.15471 | 3473 ft | 226 kts | 283° |
| 2026-04-25 20:28 | 59.82780 | 30.12310 | 3438 ft | 245 kts | 283° |
| 2026-04-25 20:28 | 59.83264 | 30.09014 | 3478 ft | 252 kts | 283° |
| 2026-04-25 20:28 | 59.83763 | 30.05614 | 3482 ft | 259 kts | 283° |
| 2026-04-25 20:29 | 59.84073 | 30.02132 | 3460 ft | 254 kts | 262° |
| 2026-04-25 20:29 | 59.83521 | 29.98905 | 3479 ft | 252 kts | 233° |
| 2026-04-25 20:29 | 59.82235 | 29.96515 | 3486 ft | 252 kts | 211° |
| 2026-04-25 20:29 | 59.80628 | 29.95257 | 3742 ft | 253 kts | 195° |
| 2026-04-25 20:30 | 59.78929 | 29.94327 | 4561 ft | 253 kts | 197° |
| 2026-04-25 20:30 | 59.77218 | 29.93360 | 5462 ft | 253 kts | 197° |
| 2026-04-25 20:30 | 59.75476 | 29.92901 | 6101 ft | 259 kts | 174° |
| 2026-04-25 20:30 | 59.73799 | 29.94126 | 6741 ft | 267 kts | 147° |
| 2026-04-25 20:31 | 59.72508 | 29.96865 | 7477 ft | 276 kts | 121° |
| 2026-04-25 20:31 | 59.71858 | 30.00475 | 8078 ft | 282 kts | 108° |
| 2026-04-25 20:31 | 59.71331 | 30.04271 | 8689 ft | 288 kts | 109° |
| 2026-04-25 20:31 | 59.70786 | 30.08082 | 9466 ft | 288 kts | 109° |
| 2026-04-25 20:32 | 59.70229 | 30.11902 | 10122 ft | 291 kts | 109° |
| 2026-04-25 20:32 | 59.69661 | 30.15846 | 10425 ft | 307 kts | 105° |
| 2026-04-25 20:32 | 59.69428 | 30.20216 | 10589 ft | 331 kts | 94° |
| 2026-04-25 20:32 | 59.69410 | 30.24937 | 10771 ft | 353 kts | 92° |
| 2026-04-25 20:33 | 59.69384 | 30.29795 | 11003 ft | 372 kts | 94° |
| 2026-04-25 20:33 | 59.69304 | 30.34914 | 11526 ft | 380 kts | 97° |
| 2026-04-25 20:33 | 59.68904 | 30.40130 | 12154 ft | 386 kts | 105° |
| 2026-04-25 20:33 | 59.68503 | 30.43624 | 12682 ft | 388 kts | 106° |
| 2026-04-25 20:34 | 59.67643 | 30.50618 | 13641 ft | 394 kts | 107° |
| 2026-04-25 20:34 | 59.67027 | 30.55864 | 14338 ft | 399 kts | 105° |
| 2026-04-25 20:34 | 59.66433 | 30.61250 | 15029 ft | 403 kts | 105° |
| 2026-04-25 20:34 | 59.65843 | 30.66719 | 15733 ft | 408 kts | 105° |
| 2026-04-25 20:35 | 59.65267 | 30.72244 | 16402 ft | 413 kts | 103° |
| 2026-04-25 20:35 | 59.64775 | 30.77869 | 17076 ft | 419 kts | 102° |
| 2026-04-25 20:35 | 59.64319 | 30.83592 | 17740 ft | 423 kts | 102° |
| 2026-04-25 20:35 | 59.63866 | 30.89376 | 18338 ft | 427 kts | 102° |
| 2026-04-25 20:36 | 59.63402 | 30.95199 | 18935 ft | 431 kts | 102° |
| 2026-04-25 20:36 | 59.62922 | 31.01088 | 19522 ft | 435 kts | 103° |
| 2026-04-25 20:36 | 59.62430 | 31.07008 | 20100 ft | 439 kts | 103° |
| 2026-04-25 20:36 | 59.61926 | 31.12988 | 20654 ft | 444 kts | 103° |
| 2026-04-25 20:37 | 59.61411 | 31.19019 | 21196 ft | 448 kts | 103° |
| 2026-04-25 20:37 | 59.60887 | 31.25122 | 21745 ft | 452 kts | 103° |
| 2026-04-25 20:37 | 59.60357 | 31.31255 | 22298 ft | 456 kts | 103° |
| 2026-04-25 20:37 | 59.59818 | 31.37450 | 22837 ft | 460 kts | 103° |
| 2026-04-25 20:38 | 59.59271 | 31.43705 | 23268 ft | 464 kts | 103° |
| 2026-04-25 20:38 | 59.58720 | 31.49987 | 23747 ft | 466 kts | 103° |
| 2026-04-25 20:38 | 59.58162 | 31.56310 | 24189 ft | 469 kts | 103° |
| 2026-04-25 20:38 | 59.57596 | 31.62682 | 24631 ft | 472 kts | 103° |
| 2026-04-25 20:39 | 59.57025 | 31.69075 | 25056 ft | 475 kts | 103° |
| 2026-04-25 20:39 | 59.56447 | 31.75514 | 25470 ft | 478 kts | 103° |
| 2026-04-25 20:39 | 59.55868 | 31.81914 | 25883 ft | 481 kts | 103° |
| 2026-04-25 20:39 | 59.55470 | 31.86306 | 26147 ft | 483 kts | 103° |
| 2026-04-25 20:40 | 59.54679 | 31.94980 | 26670 ft | 487 kts | 103° |
| 2026-04-25 20:40 | 59.54073 | 32.01573 | 27054 ft | 490 kts | 103° |
| 2026-04-25 20:40 | 59.53320 | 32.08093 | 27310 ft | 487 kts | 113° |
| 2026-04-25 20:40 | 59.51750 | 32.14054 | 27517 ft | 484 kts | 131° |
| 2026-04-25 20:41 | 59.49473 | 32.18722 | 27815 ft | 476 kts | 142° |
| 2026-04-25 20:41 | 59.47026 | 32.23159 | 28027 ft | 482 kts | 140° |
| 2026-04-25 20:41 | 59.44600 | 32.27744 | 28321 ft | 485 kts | 139° |
| 2026-04-25 20:41 | 59.42186 | 32.32413 | 28665 ft | 487 kts | 139° |
| 2026-04-25 20:42 | 59.39787 | 32.37099 | 29081 ft | 488 kts | 139° |
| 2026-04-25 20:42 | 59.37380 | 32.41807 | 29506 ft | 487 kts | 139° |
| 2026-04-25 20:42 | 59.34986 | 32.46477 | 29831 ft | 487 kts | 139° |
| 2026-04-25 20:42 | 59.32569 | 32.51170 | 30099 ft | 488 kts | 139° |
| 2026-04-25 20:43 | 59.30151 | 32.55843 | 30366 ft | 490 kts | 139° |
| 2026-04-25 20:43 | 59.27723 | 32.60521 | 30652 ft | 490 kts | 139° |
| 2026-04-25 20:43 | 59.25292 | 32.65193 | 30932 ft | 491 kts | 139° |
| 2026-04-25 20:43 | 59.22851 | 32.69873 | 31218 ft | 491 kts | 139° |
| 2026-04-25 20:44 | 59.20404 | 32.74555 | 31486 ft | 492 kts | 139° |
| 2026-04-25 20:44 | 59.17955 | 32.79230 | 31762 ft | 493 kts | 139° |
| 2026-04-25 20:44 | 59.15504 | 32.83902 | 32029 ft | 493 kts | 139° |
| 2026-04-25 20:44 | 59.13048 | 32.88573 | 32272 ft | 495 kts | 139° |
| 2026-04-25 20:45 | 59.08086 | 32.97978 | 32361 ft | 498 kts | 139° |
| 2026-04-25 20:45 | 59.03172 | 33.07260 | 32352 ft | 493 kts | 140° |
| 2026-04-25 20:46 | 58.98250 | 33.16514 | 32360 ft | 492 kts | 140° |
| 2026-04-25 20:46 | 58.93329 | 33.25729 | 32367 ft | 492 kts | 140° |
| 2026-04-25 20:47 | 58.88393 | 33.34925 | 32379 ft | 493 kts | 140° |
| 2026-04-25 20:47 | 58.83438 | 33.44111 | 32380 ft | 495 kts | 140° |
| 2026-04-25 20:48 | 58.78437 | 33.53350 | 32627 ft | 499 kts | 140° |
| 2026-04-25 20:48 | 58.75925 | 33.57979 | 32819 ft | 501 kts | 140° |
| 2026-04-25 20:48 | 58.73400 | 33.62622 | 33011 ft | 502 kts | 140° |
| 2026-04-25 20:49 | 58.70867 | 33.67271 | 33177 ft | 504 kts | 140° |
| 2026-04-25 20:49 | 58.68360 | 33.71862 | 33349 ft | 505 kts | 140° |
| 2026-04-25 20:49 | 58.65815 | 33.76514 | 33542 ft | 505 kts | 140° |
| 2026-04-25 20:49 | 58.63243 | 33.81206 | 33869 ft | 501 kts | 140° |
| 2026-04-25 20:50 | 58.60730 | 33.85783 | 34223 ft | 497 kts | 140° |
| 2026-04-25 20:50 | 58.58214 | 33.90353 | 34322 ft | 500 kts | 140° |
| 2026-04-25 20:50 | 58.53128 | 33.99551 | 34406 ft | 505 kts | 140° |
| 2026-04-25 20:51 | 58.48021 | 34.08755 | 34405 ft | 509 kts | 140° |
| 2026-04-25 20:51 | 58.42843 | 34.18050 | 34413 ft | 512 kts | 140° |
| 2026-04-25 20:52 | 58.39365 | 34.24273 | 34416 ft | 513 kts | 141° |
| 2026-04-25 20:52 | 58.32423 | 34.36641 | 34412 ft | 512 kts | 141° |
| 2026-04-25 20:53 | 58.27211 | 34.45881 | 34415 ft | 510 kts | 141° |
| 2026-04-25 20:53 | 58.22029 | 34.55032 | 34422 ft | 508 kts | 141° |
| 2026-04-25 20:54 | 58.16787 | 34.63952 | 34429 ft | 504 kts | 144° |
| 2026-04-25 20:54 | 58.11423 | 34.72309 | 34435 ft | 502 kts | 145° |
| 2026-04-25 20:55 | 58.06019 | 34.80666 | 34440 ft | 502 kts | 144° |
| 2026-04-25 20:55 | 58.00643 | 34.89066 | 34446 ft | 502 kts | 144° |
| 2026-04-25 20:56 | 57.95276 | 34.97473 | 34446 ft | 501 kts | 144° |
| 2026-04-25 20:56 | 57.89921 | 35.05828 | 34452 ft | 500 kts | 144° |
| 2026-04-25 20:57 | 57.85433 | 35.12798 | 34455 ft | 499 kts | 145° |
| 2026-04-25 20:57 | 57.80077 | 35.21081 | 34461 ft | 499 kts | 145° |
| 2026-04-25 20:58 | 57.74718 | 35.29339 | 34465 ft | 499 kts | 145° |
| 2026-04-25 20:58 | 57.69393 | 35.37515 | 34474 ft | 499 kts | 145° |
| 2026-04-25 20:59 | 57.64033 | 35.45772 | 34475 ft | 500 kts | 142° |
| 2026-04-25 20:59 | 57.61631 | 35.50525 | 34479 ft | 506 kts | 131° |
| 2026-04-25 20:59 | 57.59629 | 35.55955 | 34487 ft | 511 kts | 123° |
| 2026-04-25 21:00 | 57.57207 | 35.66066 | 34490 ft | 517 kts | 112° |
| 2026-04-25 21:01 | 57.53198 | 35.87203 | 34493 ft | 520 kts | 113° |
| 2026-04-25 21:01 | 57.50701 | 35.99833 | 34507 ft | 521 kts | 112° |
| 2026-04-25 21:02 | 57.48345 | 36.12606 | 34502 ft | 522 kts | 111° |
| 2026-04-25 21:02 | 57.46022 | 36.25400 | 34507 ft | 522 kts | 111° |
| 2026-04-25 21:03 | 57.43668 | 36.38141 | 34512 ft | 521 kts | 111° |
| 2026-04-25 21:03 | 57.41286 | 36.50829 | 34509 ft | 520 kts | 112° |
| 2026-04-25 21:04 | 57.38900 | 36.63416 | 34514 ft | 520 kts | 112° |
| 2026-04-25 21:04 | 57.36493 | 36.76036 | 34520 ft | 519 kts | 112° |
| 2026-04-25 21:05 | 57.34138 | 36.88679 | 34517 ft | 519 kts | 111° |
| 2026-04-25 21:05 | 57.31859 | 37.01360 | 34520 ft | 518 kts | 111° |
| 2026-04-25 21:06 | 57.29577 | 37.13995 | 34533 ft | 518 kts | 111° |
| 2026-04-25 21:06 | 57.27269 | 37.26597 | 34536 ft | 517 kts | 111° |
| 2026-04-25 21:07 | 57.24954 | 37.39095 | 34535 ft | 517 kts | 111° |
| 2026-04-25 21:07 | 57.22613 | 37.51652 | 34546 ft | 518 kts | 111° |
| 2026-04-25 21:08 | 57.20258 | 37.64201 | 34542 ft | 518 kts | 111° |
| 2026-04-25 21:08 | 57.17890 | 37.76746 | 34553 ft | 518 kts | 111° |
| 2026-04-25 21:09 | 57.14310 | 37.95553 | 34562 ft | 519 kts | 111° |
| 2026-04-25 21:09 | 57.11907 | 38.08073 | 34572 ft | 519 kts | 112° |
| 2026-04-25 21:10 | 57.09490 | 38.20587 | 34574 ft | 519 kts | 112° |
| 2026-04-25 21:10 | 57.07064 | 38.33067 | 34577 ft | 518 kts | 112° |
| 2026-04-25 21:11 | 57.04625 | 38.45535 | 34583 ft | 518 kts | 112° |
| 2026-04-25 21:11 | 57.02178 | 38.57964 | 34588 ft | 518 kts | 112° |
| 2026-04-25 21:12 | 56.99716 | 38.70385 | 34595 ft | 518 kts | 112° |
| 2026-04-25 21:12 | 56.97661 | 38.80696 | 34595 ft | 517 kts | 112° |
| 2026-04-25 21:13 | 56.94760 | 38.95163 | 34604 ft | 517 kts | 112° |
| 2026-04-25 21:13 | 56.92265 | 39.07520 | 34612 ft | 517 kts | 112° |
| 2026-04-25 21:14 | 56.89757 | 39.19863 | 34616 ft | 517 kts | 112° |
| 2026-04-25 21:14 | 56.87250 | 39.32128 | 34620 ft | 517 kts | 113° |
| 2026-04-25 21:15 | 56.84720 | 39.44425 | 34632 ft | 517 kts | 113° |
| 2026-04-25 21:15 | 56.82172 | 39.56741 | 34636 ft | 518 kts | 113° |
| 2026-04-25 21:16 | 56.79614 | 39.69027 | 34641 ft | 518 kts | 113° |
| 2026-04-25 21:16 | 56.77046 | 39.81287 | 34650 ft | 518 kts | 113° |
| 2026-04-25 21:17 | 56.74459 | 39.93562 | 34652 ft | 518 kts | 113° |
| 2026-04-25 21:17 | 56.71863 | 40.05804 | 34654 ft | 518 kts | 113° |
| 2026-04-25 21:18 | 56.69274 | 40.17943 | 34661 ft | 518 kts | 113° |
| 2026-04-25 21:18 | 56.66655 | 40.30151 | 34663 ft | 517 kts | 114° |
| 2026-04-25 21:19 | 56.64028 | 40.42320 | 34676 ft | 517 kts | 114° |
| 2026-04-25 21:19 | 56.61389 | 40.54475 | 34677 ft | 517 kts | 114° |
| 2026-04-25 21:20 | 56.59188 | 40.64559 | 34679 ft | 517 kts | 114° |
| 2026-04-25 21:20 | 56.56084 | 40.78698 | 34679 ft | 516 kts | 114° |
| 2026-04-25 21:21 | 56.53412 | 40.90790 | 34684 ft | 516 kts | 114° |
| 2026-04-25 21:21 | 56.50733 | 41.02845 | 34687 ft | 516 kts | 114° |
| 2026-04-25 21:22 | 56.48045 | 41.14869 | 34687 ft | 515 kts | 114° |
| 2026-04-25 21:22 | 56.45346 | 41.26874 | 34691 ft | 515 kts | 114° |
| 2026-04-25 21:23 | 56.42637 | 41.38855 | 34695 ft | 515 kts | 114° |
| 2026-04-25 21:23 | 56.39916 | 41.50824 | 34699 ft | 515 kts | 114° |
| 2026-04-25 21:24 | 56.37185 | 41.62766 | 34698 ft | 515 kts | 114° |
| 2026-04-25 21:24 | 56.34444 | 41.74688 | 34704 ft | 515 kts | 115° |
| 2026-04-25 21:25 | 56.31691 | 41.86594 | 34701 ft | 515 kts | 115° |
| 2026-04-25 21:25 | 56.28924 | 41.98490 | 34708 ft | 515 kts | 115° |
| 2026-04-25 21:26 | 56.26147 | 42.10367 | 34710 ft | 515 kts | 115° |
| 2026-04-25 21:26 | 56.23359 | 42.22227 | 34711 ft | 515 kts | 115° |
| 2026-04-25 21:27 | 56.20560 | 42.34065 | 34714 ft | 515 kts | 115° |
| 2026-04-25 21:27 | 56.17750 | 42.45884 | 34715 ft | 515 kts | 115° |
| 2026-04-25 21:28 | 56.14948 | 42.57608 | 34716 ft | 514 kts | 115° |
| 2026-04-25 21:28 | 56.12118 | 42.69385 | 34721 ft | 514 kts | 115° |
| 2026-04-25 21:29 | 56.09277 | 42.81141 | 34726 ft | 514 kts | 115° |
| 2026-04-25 21:29 | 56.06427 | 42.92872 | 34729 ft | 514 kts | 115° |
| 2026-04-25 21:30 | 56.03567 | 43.04581 | 34730 ft | 513 kts | 115° |
| 2026-04-25 21:30 | 56.01185 | 43.14287 | 34734 ft | 513 kts | 115° |
| 2026-04-25 21:31 | 55.97818 | 43.27930 | 34734 ft | 513 kts | 116° |
| 2026-04-25 21:31 | 55.94930 | 43.39567 | 34737 ft | 513 kts | 116° |
| 2026-04-25 21:32 | 55.92047 | 43.51125 | 34737 ft | 513 kts | 116° |
| 2026-04-25 21:32 | 55.89135 | 43.62734 | 34743 ft | 513 kts | 116° |
| 2026-04-25 21:33 | 55.86214 | 43.74320 | 34744 ft | 513 kts | 116° |
| 2026-04-25 21:33 | 55.83279 | 43.85902 | 34745 ft | 513 kts | 116° |
| 2026-04-25 21:34 | 55.80336 | 43.97453 | 34745 ft | 513 kts | 116° |
| 2026-04-25 21:34 | 55.77386 | 44.08974 | 34741 ft | 513 kts | 116° |
| 2026-04-25 21:35 | 55.74421 | 44.20491 | 34748 ft | 512 kts | 116° |
| 2026-04-25 21:35 | 55.71447 | 44.31986 | 34747 ft | 512 kts | 116° |
| 2026-04-25 21:36 | 55.68464 | 44.43459 | 34754 ft | 513 kts | 116° |
| 2026-04-25 21:36 | 55.65468 | 44.54924 | 34750 ft | 513 kts | 116° |
| 2026-04-25 21:37 | 55.63458 | 44.62584 | 34754 ft | 513 kts | 117° |
| 2026-04-25 21:37 | 55.59441 | 44.77814 | 34753 ft | 513 kts | 117° |
| 2026-04-25 21:38 | 55.55692 | 44.88432 | 34758 ft | 508 kts | 131° |
| 2026-04-25 21:38 | 55.50918 | 44.97425 | 34759 ft | 503 kts | 141° |
| 2026-04-25 21:39 | 55.45731 | 45.05730 | 34757 ft | 504 kts | 141° |
| 2026-04-25 21:39 | 55.40536 | 45.14061 | 34754 ft | 505 kts | 141° |
| 2026-04-25 21:40 | 55.35359 | 45.22423 | 34761 ft | 506 kts | 140° |
| 2026-04-25 21:40 | 55.30173 | 45.30803 | 34763 ft | 506 kts | 140° |
| 2026-04-25 21:41 | 55.25861 | 45.37747 | 34757 ft | 507 kts | 140° |
| 2026-04-25 21:41 | 55.20661 | 45.46087 | 34769 ft | 507 kts | 140° |
| 2026-04-25 21:42 | 55.15452 | 45.54407 | 34764 ft | 507 kts | 140° |
| 2026-04-25 21:42 | 55.10241 | 45.62701 | 34767 ft | 506 kts | 141° |
| 2026-04-25 21:43 | 55.05022 | 45.70977 | 34772 ft | 506 kts | 141° |
| 2026-04-25 21:43 | 54.99804 | 45.79221 | 34771 ft | 506 kts | 141° |
| 2026-04-25 21:44 | 54.94581 | 45.87442 | 34778 ft | 506 kts | 141° |
| 2026-04-25 21:45 | 54.86741 | 45.99730 | 34777 ft | 506 kts | 141° |
| 2026-04-25 21:45 | 54.81505 | 46.07901 | 34770 ft | 506 kts | 141° |
| 2026-04-25 21:46 | 54.76169 | 46.15835 | 34772 ft | 504 kts | 144° |
| 2026-04-25 21:46 | 54.70677 | 46.23372 | 34768 ft | 504 kts | 145° |
| 2026-04-25 21:47 | 54.65168 | 46.30890 | 34767 ft | 504 kts | 144° |
| 2026-04-25 21:47 | 54.59704 | 46.38371 | 34785 ft | 504 kts | 144° |
| 2026-04-25 21:48 | 54.54204 | 46.45895 | 34782 ft | 505 kts | 144° |
| 2026-04-25 21:48 | 54.48696 | 46.53404 | 34783 ft | 505 kts | 144° |
| 2026-04-25 21:49 | 54.43180 | 46.60894 | 34789 ft | 505 kts | 145° |
| 2026-04-25 21:49 | 54.37663 | 46.68360 | 34786 ft | 505 kts | 145° |
| 2026-04-25 21:50 | 54.32131 | 46.75821 | 34790 ft | 506 kts | 145° |
| 2026-04-25 21:50 | 54.26776 | 46.83648 | 34787 ft | 509 kts | 134° |
| 2026-04-25 21:51 | 54.22780 | 46.93670 | 34796 ft | 514 kts | 116° |
| 2026-04-25 21:51 | 54.20132 | 47.05020 | 34803 ft | 515 kts | 111° |
| 2026-04-25 21:52 | 54.17614 | 47.16392 | 34794 ft | 516 kts | 112° |
| 2026-04-25 21:52 | 54.15009 | 47.27826 | 34800 ft | 517 kts | 112° |
| 2026-04-25 21:53 | 54.12352 | 47.39227 | 34802 ft | 517 kts | 113° |
| 2026-04-25 21:53 | 54.09672 | 47.50623 | 34803 ft | 518 kts | 113° |
| 2026-04-25 21:54 | 54.06980 | 47.62022 | 34806 ft | 518 kts | 113° |
| 2026-04-25 21:54 | 54.04284 | 47.73395 | 34809 ft | 518 kts | 113° |
| 2026-04-25 21:55 | 54.01582 | 47.84738 | 34811 ft | 517 kts | 113° |
| 2026-04-25 21:55 | 53.98872 | 47.96055 | 34811 ft | 516 kts | 113° |
| 2026-04-25 21:56 | 53.96153 | 48.07345 | 34815 ft | 516 kts | 113° |
| 2026-04-25 21:56 | 53.93425 | 48.18618 | 34820 ft | 516 kts | 113° |
| 2026-04-25 21:57 | 53.90688 | 48.29867 | 34824 ft | 516 kts | 114° |
| 2026-04-25 21:57 | 53.87942 | 48.41097 | 34824 ft | 516 kts | 114° |
| 2026-04-25 21:58 | 53.85203 | 48.52245 | 34822 ft | 516 kts | 114° |
| 2026-04-25 21:58 | 53.82437 | 48.63443 | 34815 ft | 516 kts | 114° |
| 2026-04-25 21:59 | 53.79660 | 48.74635 | 34820 ft | 515 kts | 114° |
| 2026-04-25 21:59 | 53.76883 | 48.85798 | 34810 ft | 515 kts | 113° |
| 2026-04-25 22:00 | 53.73497 | 49.03043 | 34813 ft | 516 kts | 108° |
| 2026-04-25 22:00 | 53.71331 | 49.14589 | 34810 ft | 516 kts | 109° |
| 2026-04-25 22:01 | 53.69126 | 49.26102 | 34811 ft | 516 kts | 109° |
| 2026-04-25 22:01 | 53.67273 | 49.35664 | 34811 ft | 516 kts | 109° |
| 2026-04-25 22:02 | 53.64650 | 49.49106 | 34811 ft | 516 kts | 109° |
| 2026-04-25 22:02 | 53.62396 | 49.60595 | 34808 ft | 516 kts | 109° |
| 2026-04-25 22:03 | 53.60130 | 49.72082 | 34799 ft | 517 kts | 109° |
| 2026-04-25 22:03 | 53.57851 | 49.83565 | 34807 ft | 518 kts | 109° |
| 2026-04-25 22:04 | 53.55557 | 49.95065 | 34812 ft | 518 kts | 110° |
| 2026-04-25 22:04 | 53.53266 | 50.06468 | 34802 ft | 516 kts | 111° |
| 2026-04-25 22:05 | 53.51710 | 50.11846 | 34792 ft | 510 kts | 128° |
| 2026-04-25 22:05 | 53.49349 | 50.16214 | 34812 ft | 503 kts | 144° |
| 2026-04-25 22:05 | 53.46480 | 50.19489 | 34810 ft | 496 kts | 157° |
| 2026-04-25 22:05 | 53.43296 | 50.21579 | 34793 ft | 487 kts | 169° |
| 2026-04-25 22:06 | 53.36725 | 50.24391 | 34814 ft | 489 kts | 170° |
| 2026-04-25 22:06 | 53.30100 | 50.27240 | 34816 ft | 493 kts | 169° |
| 2026-04-25 22:07 | 53.24586 | 50.29707 | 34825 ft | 495 kts | 169° |
| 2026-04-25 22:07 | 53.16807 | 50.33242 | 34830 ft | 496 kts | 169° |
| 2026-04-25 22:08 | 53.10136 | 50.36267 | 34840 ft | 495 kts | 169° |
| 2026-04-25 22:08 | 53.03494 | 50.39261 | 34835 ft | 493 kts | 169° |
| 2026-04-25 22:09 | 52.96885 | 50.42228 | 34836 ft | 491 kts | 169° |
| 2026-04-25 22:09 | 52.90296 | 50.45176 | 34838 ft | 489 kts | 169° |
| 2026-04-25 22:10 | 52.83732 | 50.48105 | 34850 ft | 488 kts | 169° |
| 2026-04-25 22:10 | 52.77233 | 50.51004 | 34849 ft | 487 kts | 169° |
| 2026-04-25 22:11 | 52.70698 | 50.53958 | 34865 ft | 487 kts | 169° |
| 2026-04-25 22:11 | 52.64165 | 50.56870 | 34862 ft | 487 kts | 169° |
| 2026-04-25 22:12 | 52.57614 | 50.59751 | 34871 ft | 487 kts | 169° |
| 2026-04-25 22:12 | 52.52127 | 50.62163 | 34868 ft | 487 kts | 169° |
| 2026-04-25 22:13 | 52.44502 | 50.65485 | 34879 ft | 488 kts | 169° |
| 2026-04-25 22:13 | 52.37945 | 50.68328 | 34872 ft | 488 kts | 169° |
| 2026-04-25 22:14 | 52.31388 | 50.71167 | 34883 ft | 487 kts | 169° |
| 2026-04-25 22:14 | 52.24826 | 50.74000 | 34884 ft | 487 kts | 170° |
| 2026-04-25 22:15 | 52.18274 | 50.76821 | 34900 ft | 487 kts | 170° |
| 2026-04-25 22:16 | 52.08453 | 50.81033 | 34897 ft | 486 kts | 170° |
| 2026-04-25 22:16 | 52.01910 | 50.83828 | 34896 ft | 486 kts | 170° |
| 2026-04-25 22:17 | 51.95376 | 50.86612 | 34908 ft | 485 kts | 170° |
| 2026-04-25 22:17 | 51.88850 | 50.89416 | 34912 ft | 485 kts | 169° |
| 2026-04-25 22:18 | 51.82328 | 50.92241 | 34911 ft | 485 kts | 170° |
| 2026-04-25 22:18 | 51.75850 | 50.95034 | 34920 ft | 485 kts | 170° |
| 2026-04-25 22:19 | 51.69347 | 50.98076 | 34925 ft | 488 kts | 163° |
| 2026-04-25 22:19 | 51.63203 | 51.02891 | 34932 ft | 496 kts | 152° |
| 2026-04-25 22:20 | 51.57460 | 51.09075 | 34934 ft | 497 kts | 150° |
| 2026-04-25 22:20 | 51.51721 | 51.15273 | 34931 ft | 497 kts | 151° |
| 2026-04-25 22:21 | 51.45958 | 51.21374 | 34935 ft | 496 kts | 151° |
| 2026-04-25 22:21 | 51.40199 | 51.27487 | 34941 ft | 496 kts | 151° |
| 2026-04-25 22:22 | 51.34465 | 51.33628 | 34944 ft | 496 kts | 151° |
| 2026-04-25 22:22 | 51.28727 | 51.39749 | 34957 ft | 495 kts | 151° |
| 2026-04-25 22:23 | 51.22998 | 51.45834 | 34964 ft | 494 kts | 151° |
| 2026-04-25 22:23 | 51.17232 | 51.51576 | 34962 ft | 487 kts | 160° |
| 2026-04-25 22:24 | 51.10858 | 51.54653 | 34972 ft | 474 kts | 176° |
| 2026-04-25 22:24 | 51.04356 | 51.55240 | 34971 ft | 467 kts | 184° |
| 2026-04-25 22:25 | 50.97845 | 51.55552 | 34968 ft | 469 kts | 183° |
| 2026-04-25 22:25 | 50.91307 | 51.55936 | 34967 ft | 470 kts | 183° |
| 2026-04-25 22:26 | 50.84759 | 51.56364 | 34976 ft | 471 kts | 182° |
| 2026-04-25 22:26 | 50.79326 | 51.56725 | 34975 ft | 471 kts | 183° |
| 2026-04-25 22:27 | 50.72780 | 51.57156 | 34975 ft | 470 kts | 183° |
| 2026-04-25 22:27 | 50.66246 | 51.57583 | 34983 ft | 469 kts | 183° |
| 2026-04-25 22:28 | 50.59734 | 51.58006 | 34985 ft | 468 kts | 183° |
| 2026-04-25 22:28 | 50.53243 | 51.58426 | 34992 ft | 467 kts | 183° |
| 2026-04-25 22:29 | 50.46755 | 51.58845 | 34995 ft | 465 kts | 183° |
| 2026-04-25 22:29 | 50.40291 | 51.59266 | 35002 ft | 465 kts | 183° |
| 2026-04-25 22:30 | 50.30607 | 51.59933 | 35010 ft | 464 kts | 183° |
| 2026-04-25 22:30 | 50.25248 | 51.60304 | 35010 ft | 463 kts | 183° |
| 2026-04-25 22:31 | 50.17719 | 51.60820 | 35023 ft | 463 kts | 183° |
| 2026-04-25 22:31 | 50.11289 | 51.61259 | 35018 ft | 462 kts | 183° |
| 2026-04-25 22:32 | 50.04899 | 51.61693 | 35029 ft | 462 kts | 183° |
| 2026-04-25 22:32 | 49.98474 | 51.62128 | 35026 ft | 462 kts | 183° |
| 2026-04-25 22:33 | 49.92053 | 51.62562 | 35038 ft | 461 kts | 183° |
| 2026-04-25 22:33 | 49.85636 | 51.62996 | 35033 ft | 461 kts | 183° |
| 2026-04-25 22:34 | 49.79234 | 51.63426 | 35043 ft | 460 kts | 183° |
| 2026-04-25 22:34 | 49.72835 | 51.63855 | 35043 ft | 460 kts | 183° |
| 2026-04-25 22:35 | 49.66450 | 51.64282 | 35051 ft | 459 kts | 184° |
| 2026-04-25 22:35 | 49.60059 | 51.64709 | 35043 ft | 459 kts | 183° |
| 2026-04-25 22:36 | 49.53681 | 51.65133 | 35059 ft | 459 kts | 183° |
| 2026-04-25 22:36 | 49.47307 | 51.65556 | 35059 ft | 459 kts | 184° |
| 2026-04-25 22:37 | 49.40927 | 51.65978 | 35077 ft | 458 kts | 184° |
| 2026-04-25 22:37 | 49.34558 | 51.66399 | 35072 ft | 458 kts | 184° |
| 2026-04-25 22:38 | 49.28190 | 51.66819 | 35081 ft | 458 kts | 184° |
| 2026-04-25 22:38 | 49.21830 | 51.67237 | 35073 ft | 457 kts | 184° |
| 2026-04-25 22:39 | 49.15526 | 51.67650 | 35083 ft | 456 kts | 184° |
| 2026-04-25 22:39 | 49.09144 | 51.68067 | 35079 ft | 456 kts | 184° |
| 2026-04-25 22:40 | 49.02855 | 51.68477 | 35092 ft | 455 kts | 184° |
| 2026-04-25 22:40 | 48.96540 | 51.68888 | 35089 ft | 454 kts | 184° |
| 2026-04-25 22:41 | 48.90227 | 51.69298 | 35097 ft | 453 kts | 184° |
| 2026-04-25 22:41 | 48.83925 | 51.69706 | 35095 ft | 453 kts | 184° |
| 2026-04-25 22:42 | 48.77630 | 51.70112 | 35104 ft | 453 kts | 184° |
| 2026-04-25 22:42 | 48.71336 | 51.70518 | 35101 ft | 452 kts | 184° |
| 2026-04-25 22:43 | 48.65048 | 51.70922 | 35109 ft | 452 kts | 184° |
| 2026-04-25 22:43 | 48.58769 | 51.71324 | 35104 ft | 452 kts | 184° |
| 2026-04-25 22:44 | 48.52481 | 51.71727 | 35113 ft | 452 kts | 184° |
| 2026-04-25 22:44 | 48.46199 | 51.72127 | 35112 ft | 452 kts | 184° |
| 2026-04-25 22:45 | 48.39917 | 51.72527 | 35114 ft | 452 kts | 184° |
| 2026-04-25 22:45 | 48.33677 | 51.72923 | 35122 ft | 451 kts | 184° |
| 2026-04-25 22:46 | 48.27401 | 51.73321 | 35128 ft | 451 kts | 184° |
| 2026-04-25 22:46 | 48.21130 | 51.73717 | 35119 ft | 451 kts | 184° |
| 2026-04-25 22:47 | 48.14863 | 51.74112 | 35133 ft | 450 kts | 184° |
| 2026-04-25 22:47 | 48.08602 | 51.74506 | 35125 ft | 450 kts | 184° |
| 2026-04-25 22:48 | 48.02337 | 51.74898 | 35136 ft | 449 kts | 184° |
| 2026-04-25 22:48 | 47.96086 | 51.75290 | 35128 ft | 449 kts | 184° |
| 2026-04-25 22:49 | 47.89850 | 51.75679 | 35134 ft | 448 kts | 184° |
| 2026-04-25 22:49 | 47.83662 | 51.76062 | 35132 ft | 447 kts | 184° |
| 2026-04-25 22:50 | 47.77442 | 51.76438 | 35140 ft | 447 kts | 184° |
| 2026-04-25 22:50 | 47.71235 | 51.76811 | 35136 ft | 446 kts | 184° |
| 2026-04-25 22:51 | 47.65032 | 51.77184 | 35142 ft | 446 kts | 184° |
| 2026-04-25 22:51 | 47.58836 | 51.77556 | 35138 ft | 445 kts | 184° |
| 2026-04-25 22:52 | 47.52637 | 51.77928 | 35148 ft | 445 kts | 184° |
| 2026-04-25 22:52 | 47.47494 | 51.78235 | 35141 ft | 445 kts | 184° |
| 2026-04-25 22:53 | 47.40258 | 51.78667 | 35151 ft | 445 kts | 184° |
| 2026-04-25 22:53 | 47.34071 | 51.79034 | 35150 ft | 445 kts | 184° |
| 2026-04-25 22:54 | 47.27886 | 51.79402 | 35155 ft | 445 kts | 185° |
| 2026-04-25 22:54 | 47.21701 | 51.79769 | 35152 ft | 445 kts | 185° |
| 2026-04-25 22:55 | 47.15518 | 51.80062 | 35158 ft | 442 kts | 188° |
| 2026-04-25 22:55 | 47.09471 | 51.79161 | 35158 ft | 434 kts | 195° |
| 2026-04-25 22:56 | 47.03499 | 51.77761 | 35158 ft | 435 kts | 195° |
| 2026-04-25 22:56 | 46.97517 | 51.76407 | 35155 ft | 435 kts | 195° |
| 2026-04-25 22:57 | 46.91529 | 51.75070 | 35170 ft | 435 kts | 195° |
| 2026-04-25 22:57 | 46.85576 | 51.73744 | 35166 ft | 435 kts | 195° |
| 2026-04-25 22:58 | 46.79584 | 51.72412 | 35173 ft | 435 kts | 195° |
| 2026-04-25 22:58 | 46.73594 | 51.71082 | 35168 ft | 435 kts | 195° |
| 2026-04-25 22:59 | 46.67606 | 51.69756 | 35179 ft | 434 kts | 195° |
| 2026-04-25 22:59 | 46.61628 | 51.68435 | 35174 ft | 434 kts | 195° |
| 2026-04-25 23:00 | 46.55653 | 51.67117 | 35180 ft | 434 kts | 195° |
| 2026-04-25 23:00 | 46.49727 | 51.65812 | 35177 ft | 433 kts | 195° |
| 2026-04-25 23:01 | 46.43767 | 51.64503 | 35185 ft | 433 kts | 195° |
| 2026-04-25 23:01 | 46.37768 | 51.63184 | 35182 ft | 433 kts | 195° |
| 2026-04-25 23:02 | 46.31808 | 51.61872 | 35194 ft | 433 kts | 195° |
| 2026-04-25 23:02 | 46.25851 | 51.60562 | 35193 ft | 433 kts | 195° |
| 2026-04-25 23:03 | 46.19927 | 51.59264 | 35203 ft | 433 kts | 195° |
| 2026-04-25 23:03 | 46.13962 | 51.57959 | 35198 ft | 434 kts | 195° |
| 2026-04-25 23:04 | 46.08958 | 51.56866 | 35188 ft | 434 kts | 195° |
| 2026-04-25 23:04 | 46.02012 | 51.55353 | 35200 ft | 435 kts | 195° |
| 2026-04-25 23:05 | 45.96021 | 51.54052 | 35197 ft | 435 kts | 195° |
| 2026-04-25 23:05 | 45.90015 | 51.52750 | 35206 ft | 436 kts | 195° |
| 2026-04-25 23:06 | 45.84014 | 51.51452 | 35201 ft | 436 kts | 195° |
| 2026-04-25 23:06 | 45.78048 | 51.50164 | 35208 ft | 437 kts | 195° |
| 2026-04-25 23:07 | 45.72034 | 51.48868 | 35199 ft | 437 kts | 195° |
| 2026-04-25 23:07 | 45.66021 | 51.47576 | 35205 ft | 437 kts | 195° |
| 2026-04-25 23:08 | 45.60001 | 51.46291 | 35210 ft | 437 kts | 195° |
| 2026-04-25 23:08 | 45.53983 | 51.45010 | 35211 ft | 437 kts | 195° |
| 2026-04-25 23:09 | 45.47965 | 51.43730 | 35203 ft | 437 kts | 195° |
| 2026-04-25 23:09 | 45.41941 | 51.42451 | 35208 ft | 437 kts | 195° |
| 2026-04-25 23:10 | 45.35918 | 51.41176 | 35204 ft | 437 kts | 195° |
| 2026-04-25 23:10 | 45.29899 | 51.39903 | 35211 ft | 437 kts | 195° |
| 2026-04-25 23:11 | 45.23869 | 51.38632 | 35211 ft | 437 kts | 196° |
| 2026-04-25 23:11 | 45.17848 | 51.37364 | 35217 ft | 438 kts | 196° |
| 2026-04-25 23:12 | 45.12843 | 51.36313 | 35212 ft | 438 kts | 196° |
| 2026-04-25 23:12 | 45.06814 | 51.35049 | 35213 ft | 438 kts | 196° |
| 2026-04-25 23:13 | 45.00791 | 51.33789 | 35209 ft | 438 kts | 196° |
| 2026-04-25 23:13 | 44.94765 | 51.32531 | 35210 ft | 438 kts | 196° |
| 2026-04-25 23:14 | 44.88744 | 51.31276 | 35216 ft | 438 kts | 197° |
| 2026-04-25 23:14 | 44.82715 | 51.30023 | 35220 ft | 437 kts | 197° |
| 2026-04-25 23:15 | 44.76710 | 51.28699 | 35210 ft | 436 kts | 198° |
| 2026-04-25 23:15 | 44.70755 | 51.27178 | 35217 ft | 434 kts | 199° |
| 2026-04-25 23:16 | 44.64849 | 51.25654 | 35218 ft | 434 kts | 199° |
| 2026-04-25 23:16 | 44.58861 | 51.24137 | 35229 ft | 434 kts | 199° |
| 2026-04-25 23:17 | 44.52913 | 51.22646 | 35222 ft | 434 kts | 199° |
| 2026-04-25 23:17 | 44.46968 | 51.21162 | 35216 ft | 434 kts | 199° |
| 2026-04-25 23:18 | 44.41059 | 51.19691 | 35230 ft | 434 kts | 199° |
| 2026-04-25 23:18 | 44.35074 | 51.18202 | 35228 ft | 434 kts | 199° |
| 2026-04-25 23:19 | 44.29154 | 51.16731 | 35217 ft | 435 kts | 199° |
| 2026-04-25 23:19 | 44.23194 | 51.15254 | 35222 ft | 435 kts | 199° |
| 2026-04-25 23:20 | 44.17232 | 51.13780 | 35221 ft | 436 kts | 199° |
| 2026-04-25 23:20 | 44.11259 | 51.12306 | 35221 ft | 436 kts | 199° |
| 2026-04-25 23:21 | 44.05285 | 51.10836 | 35224 ft | 436 kts | 199° |
| 2026-04-25 23:21 | 43.99312 | 51.09368 | 35232 ft | 436 kts | 199° |
| 2026-04-25 23:22 | 43.93336 | 51.07902 | 35230 ft | 436 kts | 199° |
| 2026-04-25 23:23 | 43.84228 | 51.06370 | 35235 ft | 449 kts | 188° |
| 2026-04-25 23:23 | 43.77971 | 51.06562 | 35236 ft | 450 kts | 188° |
| 2026-04-25 23:24 | 43.71707 | 51.06732 | 35235 ft | 450 kts | 188° |
| 2026-04-25 23:24 | 43.65451 | 51.06876 | 35226 ft | 449 kts | 188° |
| 2026-04-25 23:25 | 43.59199 | 51.07010 | 35231 ft | 449 kts | 188° |
| 2026-04-25 23:25 | 43.52993 | 51.07142 | 35233 ft | 449 kts | 188° |
| 2026-04-25 23:26 | 43.46745 | 51.07275 | 35238 ft | 449 kts | 188° |
| 2026-04-25 23:26 | 43.40501 | 51.07408 | 35235 ft | 449 kts | 188° |
| 2026-04-25 23:27 | 43.34255 | 51.07542 | 35241 ft | 449 kts | 188° |
| 2026-04-25 23:27 | 43.27993 | 51.07672 | 35095 ft | 452 kts | 186° |
| 2026-04-25 23:28 | 43.21660 | 51.07803 | 35238 ft | 459 kts | 186° |
| 2026-04-25 23:28 | 43.15214 | 51.07939 | 35254 ft | 467 kts | 186° |
| 2026-04-25 23:29 | 43.08698 | 51.08080 | 35251 ft | 470 kts | 186° |
| 2026-04-25 23:29 | 43.02154 | 51.08223 | 35254 ft | 470 kts | 186° |
| 2026-04-25 23:30 | 42.95619 | 51.08362 | 35256 ft | 469 kts | 186° |
| 2026-04-25 23:30 | 42.89106 | 51.08500 | 35258 ft | 467 kts | 186° |
| 2026-04-25 23:31 | 42.82614 | 51.08620 | 35255 ft | 465 kts | 187° |
| 2026-04-25 23:31 | 42.76160 | 51.08539 | 35258 ft | 463 kts | 188° |
| 2026-04-25 23:32 | 42.69728 | 51.08398 | 35261 ft | 462 kts | 188° |
| 2026-04-25 23:32 | 42.63302 | 51.08280 | 35266 ft | 462 kts | 188° |
| 2026-04-25 23:33 | 42.56863 | 51.08180 | 35269 ft | 463 kts | 188° |
| 2026-04-25 23:33 | 42.50415 | 51.08084 | 35270 ft | 464 kts | 188° |
| 2026-04-25 23:34 | 42.43958 | 51.07987 | 35270 ft | 464 kts | 188° |
| 2026-04-25 23:34 | 42.37531 | 51.07891 | 35273 ft | 465 kts | 188° |
| 2026-04-25 23:35 | 42.31060 | 51.07794 | 35271 ft | 465 kts | 188° |
| 2026-04-25 23:35 | 42.24586 | 51.07697 | 35275 ft | 465 kts | 188° |
| 2026-04-25 23:36 | 42.18121 | 51.07601 | 35276 ft | 465 kts | 188° |
| 2026-04-25 23:36 | 42.11662 | 51.07487 | 35277 ft | 464 kts | 189° |
| 2026-04-25 23:37 | 42.05206 | 51.07362 | 35282 ft | 463 kts | 189° |
| 2026-04-25 23:37 | 41.98756 | 51.07239 | 35281 ft | 463 kts | 189° |
| 2026-04-25 23:38 | 41.92307 | 51.07118 | 35283 ft | 463 kts | 189° |
| 2026-04-25 23:38 | 41.85861 | 51.06998 | 35282 ft | 462 kts | 189° |
| 2026-04-25 23:39 | 41.79475 | 51.06879 | 35281 ft | 462 kts | 189° |
| 2026-04-25 23:39 | 41.73041 | 51.06760 | 35283 ft | 462 kts | 189° |
| 2026-04-25 23:40 | 41.66611 | 51.06641 | 35282 ft | 462 kts | 189° |
| 2026-04-25 23:40 | 41.60179 | 51.06522 | 35285 ft | 462 kts | 189° |
| 2026-04-25 23:41 | 41.53744 | 51.06417 | 35283 ft | 463 kts | 188° |
| 2026-04-25 23:41 | 41.47301 | 51.06330 | 35278 ft | 463 kts | 188° |
| 2026-04-25 23:42 | 41.40848 | 51.06243 | 35283 ft | 463 kts | 188° |
| 2026-04-25 23:42 | 41.34393 | 51.06154 | 35282 ft | 463 kts | 188° |
| 2026-04-25 23:43 | 41.27980 | 51.06065 | 35276 ft | 464 kts | 188° |
| 2026-04-25 23:43 | 41.21524 | 51.05974 | 35277 ft | 464 kts | 188° |
| 2026-04-25 23:44 | 41.15058 | 51.05884 | 35291 ft | 465 kts | 188° |
| 2026-04-25 23:44 | 41.08585 | 51.05794 | 35282 ft | 465 kts | 188° |
| 2026-04-25 23:45 | 41.02119 | 51.05705 | 35285 ft | 465 kts | 188° |
| 2026-04-25 23:45 | 40.95652 | 51.05616 | 35282 ft | 465 kts | 188° |
| 2026-04-25 23:46 | 40.89186 | 51.05527 | 35281 ft | 464 kts | 188° |
| 2026-04-25 23:46 | 40.82733 | 51.05438 | 35281 ft | 464 kts | 188° |
| 2026-04-25 23:47 | 40.76283 | 51.05349 | 35281 ft | 463 kts | 188° |
| 2026-04-25 23:47 | 40.69835 | 51.05261 | 35276 ft | 463 kts | 188° |
| 2026-04-25 23:48 | 40.63383 | 51.05172 | 35277 ft | 463 kts | 188° |
| 2026-04-25 23:48 | 40.56940 | 51.05084 | 35280 ft | 463 kts | 188° |
| 2026-04-25 23:49 | 40.50537 | 51.04996 | 35282 ft | 463 kts | 188° |
| 2026-04-25 23:49 | 40.44043 | 51.04908 | 35281 ft | 463 kts | 188° |
| 2026-04-25 23:50 | 40.37595 | 51.04820 | 35283 ft | 463 kts | 188° |
| 2026-04-25 23:50 | 40.31175 | 51.04733 | 35280 ft | 464 kts | 188° |
| 2026-04-25 23:51 | 40.24716 | 51.04645 | 35282 ft | 464 kts | 188° |
| 2026-04-25 23:51 | 40.18261 | 51.04558 | 35286 ft | 464 kts | 188° |
| 2026-04-25 23:52 | 40.11800 | 51.04471 | 35278 ft | 464 kts | 188° |
| 2026-04-25 23:52 | 40.05363 | 51.04384 | 35281 ft | 464 kts | 188° |
| 2026-04-25 23:53 | 39.98881 | 51.04297 | 35277 ft | 464 kts | 187° |
| 2026-04-25 23:53 | 39.92433 | 51.04211 | 35275 ft | 463 kts | 187° |
| 2026-04-25 23:54 | 39.86031 | 51.04126 | 35276 ft | 462 kts | 187° |
| 2026-04-25 23:54 | 39.79598 | 51.04040 | 35277 ft | 461 kts | 187° |
| 2026-04-25 23:55 | 39.73185 | 51.03954 | 35276 ft | 460 kts | 187° |
| 2026-04-25 23:55 | 39.66777 | 51.03869 | 35276 ft | 460 kts | 187° |
| 2026-04-25 23:56 | 39.60391 | 51.03784 | 35272 ft | 459 kts | 187° |
| 2026-04-25 23:56 | 39.54004 | 51.03699 | 35284 ft | 458 kts | 187° |
| 2026-04-25 23:57 | 39.47625 | 51.03614 | 35268 ft | 458 kts | 187° |
| 2026-04-25 23:57 | 39.42316 | 51.03544 | 35277 ft | 458 kts | 187° |
| 2026-04-25 23:58 | 39.35941 | 51.03459 | 35276 ft | 458 kts | 187° |
| 2026-04-25 23:58 | 39.29564 | 51.03375 | 35282 ft | 458 kts | 187° |
| 2026-04-25 23:59 | 39.23183 | 51.03291 | 35279 ft | 459 kts | 187° |
| 2026-04-25 23:59 | 39.16796 | 51.03207 | 35277 ft | 459 kts | 187° |
| 2026-04-26 00:00 | 39.10388 | 51.03123 | 35278 ft | 459 kts | 187° |
| 2026-04-26 00:00 | 39.04037 | 51.03040 | 35276 ft | 459 kts | 187° |
| 2026-04-26 00:01 | 38.97604 | 51.02956 | 35276 ft | 459 kts | 187° |
| 2026-04-26 00:01 | 38.91253 | 51.02874 | 35274 ft | 459 kts | 187° |
| 2026-04-26 00:02 | 38.84853 | 51.02790 | 35275 ft | 460 kts | 187° |
| 2026-04-26 00:02 | 38.78454 | 51.02707 | 35269 ft | 460 kts | 187° |
| 2026-04-26 00:03 | 38.72057 | 51.02624 | 35268 ft | 460 kts | 187° |
| 2026-04-26 00:03 | 38.65655 | 51.02541 | 35265 ft | 460 kts | 187° |
| 2026-04-26 00:04 | 38.59254 | 51.02458 | 35274 ft | 460 kts | 187° |
| 2026-04-26 00:04 | 38.52837 | 51.02375 | 35268 ft | 461 kts | 187° |
| 2026-04-26 00:05 | 38.46412 | 51.02293 | 35278 ft | 462 kts | 187° |
| 2026-04-26 00:05 | 38.39984 | 51.02210 | 35269 ft | 462 kts | 187° |
| 2026-04-26 00:06 | 38.33549 | 51.02128 | 35263 ft | 462 kts | 187° |
| 2026-04-26 00:06 | 38.27119 | 51.02046 | 35263 ft | 462 kts | 187° |
| 2026-04-26 00:07 | 38.20692 | 51.01964 | 35266 ft | 462 kts | 187° |
| 2026-04-26 00:07 | 38.14307 | 51.01882 | 35263 ft | 461 kts | 187° |
| 2026-04-26 00:08 | 38.07893 | 51.01800 | 35266 ft | 461 kts | 187° |
| 2026-04-26 00:08 | 38.01475 | 51.01878 | 35263 ft | 465 kts | 181° |
| 2026-04-26 00:09 | 37.95045 | 51.03271 | 35263 ft | 475 kts | 172° |
| 2026-04-26 00:09 | 37.88675 | 51.05508 | 35265 ft | 475 kts | 171° |
| 2026-04-26 00:10 | 37.82303 | 51.07717 | 35263 ft | 475 kts | 172° |
| 2026-04-26 00:10 | 37.75905 | 51.09884 | 35262 ft | 476 kts | 172° |
| 2026-04-26 00:11 | 37.69497 | 51.12048 | 35268 ft | 477 kts | 172° |
| 2026-04-26 00:11 | 37.63088 | 51.14208 | 35265 ft | 477 kts | 172° |
| 2026-04-26 00:12 | 37.56659 | 51.16371 | 35265 ft | 478 kts | 172° |
| 2026-04-26 00:12 | 37.50231 | 51.18532 | 35264 ft | 479 kts | 172° |
| 2026-04-26 00:13 | 37.43789 | 51.20694 | 35263 ft | 479 kts | 172° |
| 2026-04-26 00:13 | 37.37346 | 51.22852 | 35265 ft | 479 kts | 172° |
| 2026-04-26 00:14 | 37.30893 | 51.25009 | 35262 ft | 480 kts | 172° |
| 2026-04-26 00:14 | 37.24441 | 51.27163 | 35266 ft | 480 kts | 172° |
| 2026-04-26 00:15 | 37.17983 | 51.29314 | 35264 ft | 480 kts | 172° |
| 2026-04-26 00:15 | 37.11519 | 51.31464 | 35264 ft | 481 kts | 172° |
| 2026-04-26 00:16 | 37.05089 | 51.33599 | 35266 ft | 481 kts | 172° |
| 2026-04-26 00:16 | 36.98614 | 51.35745 | 35261 ft | 481 kts | 172° |
| 2026-04-26 00:17 | 36.92135 | 51.37888 | 35254 ft | 482 kts | 172° |
| 2026-04-26 00:17 | 36.85656 | 51.40028 | 35248 ft | 482 kts | 172° |
| 2026-04-26 00:18 | 36.79170 | 51.42166 | 35241 ft | 482 kts | 173° |
| 2026-04-26 00:18 | 36.72681 | 51.44303 | 35237 ft | 482 kts | 173° |
| 2026-04-26 00:19 | 36.66190 | 51.46444 | 35237 ft | 483 kts | 172° |
| 2026-04-26 00:19 | 36.59747 | 51.48959 | 35235 ft | 486 kts | 169° |
| 2026-04-26 00:20 | 36.53320 | 51.51572 | 35238 ft | 486 kts | 169° |
| 2026-04-26 00:20 | 36.46885 | 51.54168 | 35229 ft | 485 kts | 169° |
| 2026-04-26 00:21 | 36.40455 | 51.56738 | 35226 ft | 487 kts | 170° |
| 2026-04-26 00:21 | 36.34007 | 51.59305 | 35238 ft | 486 kts | 169° |
| 2026-04-26 00:22 | 36.27566 | 51.61866 | 35229 ft | 486 kts | 170° |
| 2026-04-26 00:22 | 36.21114 | 51.64426 | 35225 ft | 486 kts | 170° |
| 2026-04-26 00:23 | 36.14667 | 51.66980 | 35198 ft | 486 kts | 170° |
| 2026-04-26 00:23 | 36.08224 | 51.69529 | 35187 ft | 486 kts | 170° |
| 2026-04-26 00:24 | 36.01794 | 51.72069 | 35205 ft | 485 kts | 169° |
| 2026-04-26 00:24 | 35.95370 | 51.74603 | 35184 ft | 484 kts | 169° |
| 2026-04-26 00:25 | 35.88948 | 51.77018 | 35177 ft | 481 kts | 171° |
| 2026-04-26 00:25 | 35.82503 | 51.79218 | 35167 ft | 481 kts | 172° |
| 2026-04-26 00:26 | 35.76073 | 51.81398 | 35156 ft | 482 kts | 171° |
| 2026-04-26 00:26 | 35.69601 | 51.83625 | 35153 ft | 483 kts | 171° |
| 2026-04-26 00:27 | 35.63131 | 51.85866 | 35140 ft | 483 kts | 171° |
| 2026-04-26 00:27 | 35.56657 | 51.88106 | 35129 ft | 484 kts | 171° |
| 2026-04-26 00:28 | 35.50179 | 51.90338 | 35119 ft | 484 kts | 171° |
| 2026-04-26 00:28 | 35.43689 | 51.92573 | 35107 ft | 484 kts | 171° |
| 2026-04-26 00:29 | 35.37211 | 51.94800 | 35109 ft | 483 kts | 171° |
| 2026-04-26 00:29 | 35.30773 | 51.97009 | 35104 ft | 483 kts | 171° |
| 2026-04-26 00:30 | 35.24257 | 51.99241 | 35093 ft | 483 kts | 171° |
| 2026-04-26 00:30 | 35.17827 | 52.01440 | 35100 ft | 483 kts | 171° |
| 2026-04-26 00:31 | 35.11348 | 52.03652 | 35093 ft | 483 kts | 171° |
| 2026-04-26 00:31 | 35.04861 | 52.05863 | 35070 ft | 484 kts | 171° |
| 2026-04-26 00:32 | 34.98361 | 52.07964 | 35082 ft | 482 kts | 174° |
| 2026-04-26 00:32 | 34.88565 | 52.10750 | 35077 ft | 482 kts | 174° |
| 2026-04-26 00:33 | 34.82077 | 52.12647 | 35078 ft | 483 kts | 174° |
| 2026-04-26 00:33 | 34.75726 | 52.15593 | 35082 ft | 499 kts | 157° |
| 2026-04-26 00:34 | 34.70097 | 52.20730 | 35087 ft | 511 kts | 144° |
| 2026-04-26 00:34 | 34.64878 | 52.26631 | 35081 ft | 513 kts | 143° |
| 2026-04-26 00:35 | 34.59654 | 52.32532 | 35084 ft | 513 kts | 144° |
| 2026-04-26 00:35 | 34.54387 | 52.38371 | 35086 ft | 513 kts | 144° |
| 2026-04-26 00:36 | 34.49094 | 52.44181 | 35083 ft | 513 kts | 144° |
| 2026-04-26 00:36 | 34.43783 | 52.49996 | 35095 ft | 514 kts | 145° |
| 2026-04-26 00:37 | 34.38481 | 52.55796 | 35089 ft | 514 kts | 145° |
| 2026-04-26 00:37 | 34.33216 | 52.61551 | 35093 ft | 514 kts | 145° |
| 2026-04-26 00:38 | 34.27907 | 52.67343 | 35097 ft | 514 kts | 146° |
| 2026-04-26 00:38 | 34.22597 | 52.73125 | 35091 ft | 513 kts | 146° |
| 2026-04-26 00:39 | 34.17288 | 52.78897 | 35094 ft | 513 kts | 146° |
| 2026-04-26 00:39 | 34.12878 | 52.83683 | 35095 ft | 513 kts | 146° |
| 2026-04-26 00:40 | 34.06673 | 52.90404 | 35093 ft | 513 kts | 147° |
| 2026-04-26 00:40 | 34.01360 | 52.96149 | 35098 ft | 513 kts | 147° |
| 2026-04-26 00:41 | 33.96044 | 53.01887 | 35100 ft | 513 kts | 147° |
| 2026-04-26 00:41 | 33.90727 | 53.07616 | 35097 ft | 513 kts | 147° |
| 2026-04-26 00:42 | 33.86295 | 53.12384 | 35094 ft | 514 kts | 147° |
| 2026-04-26 00:42 | 33.80964 | 53.18111 | 35098 ft | 514 kts | 147° |
| 2026-04-26 00:43 | 33.75627 | 53.23833 | 35095 ft | 514 kts | 148° |
| 2026-04-26 00:43 | 33.70283 | 53.29553 | 35108 ft | 515 kts | 148° |
| 2026-04-26 00:44 | 33.64924 | 53.35280 | 35099 ft | 516 kts | 148° |
| 2026-04-26 00:44 | 33.59551 | 53.41015 | 35093 ft | 517 kts | 148° |
| 2026-04-26 00:45 | 33.54177 | 53.46730 | 35092 ft | 516 kts | 148° |
| 2026-04-26 00:45 | 33.48774 | 53.52403 | 35093 ft | 516 kts | 148° |
| 2026-04-26 00:46 | 33.43412 | 53.58025 | 35092 ft | 516 kts | 148° |
| 2026-04-26 00:46 | 33.38123 | 53.63908 | 35092 ft | 524 kts | 141° |
| 2026-04-26 00:47 | 33.33594 | 53.70861 | 35102 ft | 534 kts | 131° |
| 2026-04-26 00:47 | 33.29361 | 53.78186 | 35087 ft | 535 kts | 131° |
| 2026-04-26 00:48 | 33.25061 | 53.85445 | 35079 ft | 535 kts | 132° |
| 2026-04-26 00:48 | 33.20417 | 53.92161 | 35079 ft | 515 kts | 149° |
| 2026-04-26 00:49 | 33.17498 | 53.94529 | 35089 ft | 502 kts | 160° |
| 2026-04-26 00:49 | 33.14353 | 53.96224 | 35086 ft | 493 kts | 171° |
| 2026-04-26 00:49 | 33.11074 | 53.97182 | 35088 ft | 481 kts | 179° |
| 2026-04-26 00:49 | 33.07770 | 53.97923 | 35082 ft | 486 kts | 178° |
| 2026-04-26 00:50 | 33.01081 | 53.99510 | 35079 ft | 493 kts | 177° |
| 2026-04-26 00:50 | 32.94403 | 54.01200 | 35056 ft | 487 kts | 177° |
| 2026-04-26 00:51 | 32.87804 | 54.02873 | 35062 ft | 484 kts | 177° |
| 2026-04-26 00:51 | 32.81210 | 54.04561 | 35062 ft | 486 kts | 176° |
| 2026-04-26 00:52 | 32.74599 | 54.06321 | 35069 ft | 487 kts | 176° |
| 2026-04-26 00:52 | 32.67976 | 54.08086 | 35064 ft | 489 kts | 176° |
| 2026-04-26 00:53 | 32.61334 | 54.09843 | 35072 ft | 490 kts | 176° |
| 2026-04-26 00:53 | 32.54677 | 54.11597 | 35068 ft | 490 kts | 176° |
| 2026-04-26 00:54 | 32.48025 | 54.13349 | 35068 ft | 490 kts | 176° |
| 2026-04-26 00:54 | 32.41380 | 54.15096 | 35057 ft | 489 kts | 176° |
| 2026-04-26 00:55 | 32.34747 | 54.16826 | 35073 ft | 487 kts | 176° |
| 2026-04-26 00:55 | 32.28121 | 54.18521 | 35072 ft | 486 kts | 176° |
| 2026-04-26 00:56 | 32.21561 | 54.20196 | 35074 ft | 485 kts | 176° |
| 2026-04-26 00:56 | 32.14973 | 54.21880 | 35070 ft | 484 kts | 176° |
| 2026-04-26 00:57 | 32.08391 | 54.23563 | 35071 ft | 483 kts | 176° |
| 2026-04-26 00:57 | 32.01827 | 54.25237 | 35083 ft | 482 kts | 176° |
| 2026-04-26 00:58 | 31.95278 | 54.26906 | 35084 ft | 482 kts | 176° |
| 2026-04-26 00:58 | 31.88771 | 54.29050 | 35097 ft | 492 kts | 167° |
| 2026-04-26 00:59 | 31.82527 | 54.32560 | 35098 ft | 500 kts | 160° |
| 2026-04-26 00:59 | 31.76365 | 54.36377 | 35096 ft | 501 kts | 160° |
| 2026-04-26 01:00 | 31.70185 | 54.40149 | 35103 ft | 501 kts | 160° |
| 2026-04-26 01:00 | 31.63983 | 54.43886 | 35100 ft | 501 kts | 160° |
| 2026-04-26 01:01 | 31.57786 | 54.47607 | 35098 ft | 500 kts | 160° |
| 2026-04-26 01:01 | 31.51591 | 54.51326 | 35099 ft | 500 kts | 160° |
| 2026-04-26 01:02 | 31.45398 | 54.55040 | 35100 ft | 500 kts | 160° |
| 2026-04-26 01:02 | 31.39198 | 54.58749 | 35096 ft | 500 kts | 160° |
| 2026-04-26 01:03 | 31.32998 | 54.62451 | 35088 ft | 500 kts | 160° |
| 2026-04-26 01:03 | 31.26845 | 54.66121 | 35096 ft | 500 kts | 160° |
| 2026-04-26 01:04 | 31.20644 | 54.69816 | 35094 ft | 500 kts | 160° |
| 2026-04-26 01:04 | 31.14452 | 54.73500 | 35103 ft | 499 kts | 160° |
| 2026-04-26 01:05 | 31.08258 | 54.77179 | 35090 ft | 500 kts | 160° |
| 2026-04-26 01:05 | 31.02064 | 54.80854 | 35087 ft | 499 kts | 160° |
| 2026-04-26 01:06 | 30.95878 | 54.84519 | 35092 ft | 498 kts | 160° |
| 2026-04-26 01:06 | 30.89697 | 54.88174 | 35128 ft | 498 kts | 160° |
| 2026-04-26 01:07 | 30.83523 | 54.91821 | 35131 ft | 498 kts | 160° |
| 2026-04-26 01:07 | 30.77345 | 54.95465 | 35141 ft | 498 kts | 160° |
| 2026-04-26 01:08 | 30.71156 | 54.99104 | 35148 ft | 498 kts | 160° |
| 2026-04-26 01:08 | 30.65007 | 55.02707 | 35155 ft | 499 kts | 160° |
| 2026-04-26 01:09 | 30.58799 | 55.06341 | 35149 ft | 500 kts | 160° |
| 2026-04-26 01:09 | 30.52582 | 55.09979 | 35155 ft | 501 kts | 160° |
| 2026-04-26 01:10 | 30.46354 | 55.13617 | 35154 ft | 501 kts | 160° |
| 2026-04-26 01:10 | 30.40121 | 55.17254 | 35147 ft | 501 kts | 160° |
| 2026-04-26 01:11 | 30.33888 | 55.20884 | 35163 ft | 501 kts | 160° |
| 2026-04-26 01:11 | 30.27650 | 55.24513 | 35152 ft | 502 kts | 160° |
| 2026-04-26 01:12 | 30.21406 | 55.28140 | 35151 ft | 502 kts | 160° |
| 2026-04-26 01:12 | 30.15158 | 55.31764 | 35166 ft | 502 kts | 160° |
| 2026-04-26 01:13 | 30.08912 | 55.35383 | 35158 ft | 503 kts | 160° |
| 2026-04-26 01:13 | 30.02654 | 55.39003 | 35157 ft | 503 kts | 160° |
| 2026-04-26 01:14 | 29.96398 | 55.42607 | 35165 ft | 503 kts | 160° |
| 2026-04-26 01:14 | 29.90132 | 55.46210 | 35165 ft | 503 kts | 159° |
| 2026-04-26 01:15 | 29.83861 | 55.49815 | 35161 ft | 504 kts | 159° |
| 2026-04-26 01:15 | 29.77627 | 55.53393 | 35159 ft | 504 kts | 159° |
| 2026-04-26 01:16 | 29.71347 | 55.56993 | 35160 ft | 504 kts | 159° |
| 2026-04-26 01:16 | 29.65062 | 55.60591 | 35159 ft | 504 kts | 159° |
| 2026-04-26 01:17 | 29.58783 | 55.64181 | 35159 ft | 504 kts | 159° |
| 2026-04-26 01:17 | 29.52574 | 55.67978 | 35156 ft | 507 kts | 155° |
| 2026-04-26 01:18 | 29.46518 | 55.72129 | 35156 ft | 508 kts | 154° |
| 2026-04-26 01:18 | 29.40454 | 55.76299 | 35157 ft | 508 kts | 154° |
| 2026-04-26 01:19 | 29.34389 | 55.80435 | 35157 ft | 507 kts | 154° |
| 2026-04-26 01:19 | 29.28319 | 55.84552 | 35155 ft | 507 kts | 154° |
| 2026-04-26 01:20 | 29.22284 | 55.88638 | 35159 ft | 507 kts | 154° |
| 2026-04-26 01:20 | 29.16206 | 55.92749 | 35158 ft | 506 kts | 154° |
| 2026-04-26 01:21 | 29.10140 | 55.96848 | 35151 ft | 506 kts | 154° |
| 2026-04-26 01:21 | 29.04073 | 56.00941 | 35150 ft | 506 kts | 154° |
| 2026-04-26 01:22 | 28.98004 | 56.05030 | 35150 ft | 507 kts | 154° |
| 2026-04-26 01:22 | 28.91918 | 56.09126 | 35137 ft | 507 kts | 154° |
| 2026-04-26 01:23 | 28.85832 | 56.13216 | 35133 ft | 508 kts | 154° |
| 2026-04-26 01:23 | 28.79745 | 56.17302 | 35140 ft | 508 kts | 154° |
| 2026-04-26 01:24 | 28.73621 | 56.21184 | 35129 ft | 506 kts | 156° |
| 2026-04-26 01:24 | 28.67402 | 56.24953 | 35111 ft | 506 kts | 156° |
| 2026-04-26 01:25 | 28.61196 | 56.28737 | 35107 ft | 506 kts | 156° |
| 2026-04-26 01:25 | 28.55012 | 56.32540 | 35104 ft | 505 kts | 156° |
| 2026-04-26 01:26 | 28.48840 | 56.36339 | 35089 ft | 504 kts | 156° |
| 2026-04-26 01:26 | 28.42676 | 56.40126 | 35079 ft | 502 kts | 156° |
| 2026-04-26 01:27 | 28.36536 | 56.43890 | 35071 ft | 501 kts | 156° |
| 2026-04-26 01:27 | 28.30404 | 56.47645 | 35062 ft | 500 kts | 156° |
| 2026-04-26 01:28 | 28.24284 | 56.51389 | 35066 ft | 499 kts | 156° |
| 2026-04-26 01:28 | 28.21149 | 56.52995 | 35051 ft | 490 kts | 167° |
| 2026-04-26 01:28 | 28.18980 | 56.53634 | 35053 ft | 484 kts | 175° |
| 2026-04-26 01:29 | 28.12370 | 56.53811 | 35040 ft | 469 kts | 194° |
| 2026-04-26 01:29 | 28.05933 | 56.52535 | 35041 ft | 472 kts | 195° |
| 2026-04-26 01:30 | 27.99438 | 56.51262 | 35039 ft | 475 kts | 194° |
| 2026-04-26 01:30 | 27.92890 | 56.50036 | 35014 ft | 478 kts | 194° |
| 2026-04-26 01:31 | 27.86306 | 56.48832 | 34999 ft | 480 kts | 194° |
| 2026-04-26 01:31 | 27.79722 | 56.47631 | 34965 ft | 477 kts | 194° |
| 2026-04-26 01:32 | 27.73192 | 56.46440 | 34962 ft | 474 kts | 194° |
| 2026-04-26 01:32 | 27.66684 | 56.45250 | 34942 ft | 473 kts | 194° |
| 2026-04-26 01:33 | 27.60223 | 56.44069 | 34938 ft | 474 kts | 194° |
| 2026-04-26 01:33 | 27.53715 | 56.42881 | 34921 ft | 474 kts | 194° |
| 2026-04-26 01:34 | 27.47149 | 56.41685 | 34912 ft | 475 kts | 194° |
| 2026-04-26 01:34 | 27.40607 | 56.40494 | 34895 ft | 477 kts | 194° |
| 2026-04-26 01:35 | 27.34082 | 56.39309 | 34888 ft | 478 kts | 194° |
| 2026-04-26 01:35 | 27.27501 | 56.38114 | 34873 ft | 479 kts | 194° |
| 2026-04-26 01:36 | 27.20941 | 56.36818 | 34872 ft | 476 kts | 199° |
| 2026-04-26 01:37 | 27.11725 | 56.33049 | 34874 ft | 468 kts | 208° |
| 2026-04-26 01:37 | 27.05727 | 56.30194 | 34860 ft | 469 kts | 207° |
| 2026-04-26 01:38 | 26.99705 | 56.27371 | 34860 ft | 469 kts | 207° |
| 2026-04-26 01:38 | 26.93673 | 56.24565 | 34862 ft | 469 kts | 207° |
| 2026-04-26 01:39 | 26.87644 | 56.21764 | 34862 ft | 469 kts | 207° |
| 2026-04-26 01:39 | 26.81604 | 56.18959 | 34863 ft | 470 kts | 207° |
| 2026-04-26 01:40 | 26.75566 | 56.16159 | 34861 ft | 470 kts | 207° |
| 2026-04-26 01:40 | 26.69305 | 56.13876 | 34862 ft | 476 kts | 199° |
| 2026-04-26 01:41 | 26.62878 | 56.12047 | 34858 ft | 477 kts | 199° |
| 2026-04-26 01:41 | 26.56488 | 56.10213 | 34857 ft | 478 kts | 199° |
| 2026-04-26 01:42 | 26.50048 | 56.08333 | 34863 ft | 478 kts | 200° |
| 2026-04-26 01:42 | 26.43606 | 56.06447 | 34866 ft | 479 kts | 200° |
| 2026-04-26 01:43 | 26.37148 | 56.04560 | 34863 ft | 479 kts | 200° |
| 2026-04-26 01:43 | 26.30691 | 56.02676 | 34864 ft | 480 kts | 200° |
| 2026-04-26 01:44 | 26.24132 | 56.01101 | 34872 ft | 486 kts | 192° |
| 2026-04-26 01:44 | 26.17410 | 56.00212 | 34870 ft | 487 kts | 192° |
| 2026-04-26 01:45 | 26.10681 | 55.99315 | 34874 ft | 487 kts | 192° |
| 2026-04-26 01:45 | 26.03935 | 55.98370 | 34882 ft | 488 kts | 192° |
| 2026-04-26 01:46 | 25.97435 | 55.96808 | 34887 ft | 476 kts | 207° |
| 2026-04-26 01:46 | 25.91833 | 55.93103 | 34895 ft | 464 kts | 226° |
| 2026-04-26 01:47 | 25.87102 | 55.88239 | 34892 ft | 464 kts | 226° |
| 2026-04-26 01:47 | 25.82034 | 55.83734 | 34900 ft | 471 kts | 218° |
| 2026-04-26 01:48 | 25.76251 | 55.80225 | 34899 ft | 477 kts | 210° |
| 2026-04-26 01:48 | 25.73271 | 55.78677 | 34886 ft | 466 kts | 210° |
| 2026-04-26 01:48 | 25.70384 | 55.77178 | 34867 ft | 450 kts | 210° |
| 2026-04-26 01:48 | 25.67601 | 55.75715 | 34867 ft | 435 kts | 211° |
| 2026-04-26 01:49 | 25.64920 | 55.74289 | 34883 ft | 420 kts | 211° |
| 2026-04-26 01:49 | 25.59671 | 55.71482 | 34895 ft | 419 kts | 211° |
| 2026-04-26 01:50 | 25.54417 | 55.68673 | 34892 ft | 419 kts | 211° |
| 2026-04-26 01:50 | 25.49479 | 55.66034 | 34886 ft | 419 kts | 211° |
| 2026-04-26 01:51 | 25.44235 | 55.63234 | 34886 ft | 418 kts | 211° |
| 2026-04-26 01:51 | 25.38996 | 55.60437 | 34886 ft | 418 kts | 211° |
| 2026-04-26 01:52 | 25.33756 | 55.57643 | 34884 ft | 417 kts | 211° |
| 2026-04-26 01:52 | 25.28527 | 55.54856 | 34884 ft | 417 kts | 211° |
| 2026-04-26 01:53 | 25.23303 | 55.52072 | 34887 ft | 417 kts | 211° |
| 2026-04-26 01:53 | 25.18082 | 55.49292 | 34887 ft | 417 kts | 211° |
| 2026-04-26 01:54 | 25.12849 | 55.46505 | 34883 ft | 418 kts | 211° |
| 2026-04-26 01:54 | 25.07613 | 55.43716 | 34895 ft | 418 kts | 212° |
| 2026-04-26 01:55 | 25.02400 | 55.40941 | 34893 ft | 419 kts | 211° |
| 2026-04-26 01:55 | 24.97151 | 55.38147 | 34913 ft | 419 kts | 211° |
| 2026-04-26 01:56 | 24.91891 | 55.35347 | 34910 ft | 420 kts | 211° |
| 2026-04-26 01:56 | 24.86625 | 55.32545 | 34910 ft | 420 kts | 211° |
| 2026-04-26 01:57 | 24.81355 | 55.29742 | 34910 ft | 420 kts | 211° |
| 2026-04-26 01:57 | 24.76090 | 55.26942 | 34909 ft | 420 kts | 211° |
| 2026-04-26 01:58 | 24.70849 | 55.24156 | 34907 ft | 421 kts | 212° |
| 2026-04-26 01:58 | 24.65578 | 55.21355 | 34908 ft | 421 kts | 212° |
| 2026-04-26 01:59 | 24.60304 | 55.18553 | 34911 ft | 424 kts | 212° |
| 2026-04-26 01:59 | 24.54909 | 55.15670 | 34923 ft | 439 kts | 212° |
| 2026-04-26 02:00 | 24.49332 | 55.12665 | 34926 ft | 454 kts | 212° |
| 2026-04-26 02:00 | 24.43562 | 55.09533 | 34927 ft | 468 kts | 212° |
| 2026-04-26 02:01 | 24.37647 | 55.06303 | 34922 ft | 481 kts | 212° |
| 2026-04-26 02:01 | 24.31621 | 55.02998 | 34914 ft | 487 kts | 212° |
| 2026-04-26 02:02 | 24.25542 | 54.99659 | 34908 ft | 490 kts | 212° |
| 2026-04-26 02:02 | 24.19432 | 54.96302 | 34907 ft | 491 kts | 212° |
| 2026-04-26 02:03 | 24.13364 | 54.92968 | 34906 ft | 491 kts | 212° |
| 2026-04-26 02:03 | 24.07264 | 54.89619 | 34899 ft | 490 kts | 212° |
| 2026-04-26 02:04 | 24.01167 | 54.86274 | 34900 ft | 489 kts | 212° |
| 2026-04-26 02:04 | 23.95083 | 54.82940 | 34902 ft | 489 kts | 212° |
| 2026-04-26 02:05 | 23.89001 | 54.79609 | 34900 ft | 488 kts | 212° |
| 2026-04-26 02:05 | 23.82930 | 54.76285 | 34894 ft | 488 kts | 212° |
| 2026-04-26 02:06 | 23.76855 | 54.72960 | 34899 ft | 488 kts | 212° |
| 2026-04-26 02:06 | 23.70776 | 54.69636 | 34903 ft | 489 kts | 212° |
| 2026-04-26 02:07 | 23.64691 | 54.66309 | 34901 ft | 489 kts | 212° |
| 2026-04-26 02:07 | 23.58596 | 54.62977 | 34904 ft | 490 kts | 212° |
| 2026-04-26 02:08 | 23.52532 | 54.59664 | 34907 ft | 491 kts | 212° |
| 2026-04-26 02:08 | 23.46419 | 54.56324 | 34906 ft | 491 kts | 212° |
| 2026-04-26 02:09 | 23.40295 | 54.52977 | 34903 ft | 492 kts | 212° |
| 2026-04-26 02:09 | 23.34176 | 54.49635 | 34905 ft | 492 kts | 212° |
| 2026-04-26 02:10 | 23.28051 | 54.46290 | 34904 ft | 493 kts | 212° |
| 2026-04-26 02:10 | 23.21918 | 54.42942 | 34907 ft | 493 kts | 212° |
| 2026-04-26 02:11 | 23.15779 | 54.39594 | 34910 ft | 494 kts | 212° |
| 2026-04-26 02:11 | 23.09641 | 54.36247 | 34909 ft | 494 kts | 212° |
| 2026-04-26 02:12 | 23.03493 | 54.32896 | 34908 ft | 494 kts | 212° |
| 2026-04-26 02:12 | 22.97340 | 54.29544 | 34911 ft | 495 kts | 212° |
| 2026-04-26 02:13 | 22.91232 | 54.26218 | 34915 ft | 495 kts | 212° |
| 2026-04-26 02:13 | 22.84832 | 54.23820 | 34901 ft | 488 kts | 185° |
| 2026-04-26 02:14 | 22.78027 | 54.24771 | 34800 ft | 492 kts | 169° |
| 2026-04-26 02:14 | 22.74835 | 54.26112 | 34422 ft | 494 kts | 150° |
| 2026-04-26 02:14 | 22.72210 | 54.28455 | 34197 ft | 488 kts | 130° |
| 2026-04-26 02:14 | 22.70317 | 54.31475 | 33611 ft | 487 kts | 115° |
| 2026-04-26 02:15 | 22.69192 | 54.34957 | 32617 ft | 494 kts | 99° |
| 2026-04-26 02:15 | 22.68907 | 54.37399 | 31992 ft | 497 kts | 90° |
| 2026-04-26 02:15 | 22.69160 | 54.41142 | 31065 ft | 501 kts | 77° |
| 2026-04-26 02:15 | 22.70235 | 54.44747 | 30154 ft | 506 kts | 64° |
| 2026-04-26 02:16 | 22.72106 | 54.47971 | 29123 ft | 508 kts | 48° |
| 2026-04-26 02:16 | 22.74669 | 54.50562 | 28669 ft | 498 kts | 33° |
| 2026-04-26 02:16 | 22.77645 | 54.52303 | 28455 ft | 477 kts | 18° |
| 2026-04-26 02:16 | 22.80734 | 54.53465 | 28168 ft | 465 kts | 16° |
| 2026-04-26 02:17 | 22.83789 | 54.54538 | 27867 ft | 456 kts | 15° |
| 2026-04-26 02:17 | 22.86785 | 54.55580 | 27562 ft | 448 kts | 15° |
| 2026-04-26 02:17 | 22.89725 | 54.56622 | 27278 ft | 440 kts | 16° |
| 2026-04-26 02:17 | 22.92606 | 54.57667 | 26990 ft | 433 kts | 16° |
| 2026-04-26 02:18 | 22.95436 | 54.58714 | 26707 ft | 426 kts | 17° |
| 2026-04-26 02:18 | 22.98218 | 54.59757 | 26431 ft | 419 kts | 17° |
| 2026-04-26 02:18 | 23.00948 | 54.60788 | 26158 ft | 413 kts | 17° |
| 2026-04-26 02:18 | 23.03639 | 54.61808 | 25872 ft | 406 kts | 17° |
| 2026-04-26 02:19 | 23.06286 | 54.62814 | 25633 ft | 399 kts | 17° |
| 2026-04-26 02:19 | 23.08882 | 54.63800 | 25441 ft | 391 kts | 17° |
| 2026-04-26 02:19 | 23.11432 | 54.64769 | 25209 ft | 384 kts | 17° |
| 2026-04-26 02:19 | 23.13926 | 54.65717 | 25021 ft | 376 kts | 17° |
| 2026-04-26 02:20 | 23.16387 | 54.66651 | 24819 ft | 373 kts | 17° |
| 2026-04-26 02:20 | 23.18824 | 54.67577 | 24625 ft | 370 kts | 17° |
| 2026-04-26 02:20 | 23.21253 | 54.68499 | 24414 ft | 369 kts | 17° |
| 2026-04-26 02:20 | 23.23673 | 54.69418 | 24216 ft | 367 kts | 17° |
| 2026-04-26 02:21 | 23.26076 | 54.70331 | 24013 ft | 366 kts | 17° |
| 2026-04-26 02:21 | 23.28446 | 54.71233 | 23811 ft | 364 kts | 17° |
| 2026-04-26 02:21 | 23.30838 | 54.72143 | 23618 ft | 363 kts | 17° |
| 2026-04-26 02:21 | 23.33220 | 54.73049 | 23430 ft | 362 kts | 17° |
| 2026-04-26 02:22 | 23.35595 | 54.73953 | 23223 ft | 360 kts | 17° |
| 2026-04-26 02:22 | 23.37955 | 54.74852 | 23015 ft | 359 kts | 17° |
| 2026-04-26 02:22 | 23.40313 | 54.75751 | 22813 ft | 358 kts | 17° |
| 2026-04-26 02:22 | 23.42665 | 54.76648 | 22609 ft | 358 kts | 17° |
| 2026-04-26 02:23 | 23.45012 | 54.77543 | 22404 ft | 357 kts | 17° |
| 2026-04-26 02:23 | 23.47354 | 54.78436 | 22206 ft | 356 kts | 17° |
| 2026-04-26 02:23 | 23.49689 | 54.79327 | 22018 ft | 356 kts | 17° |
| 2026-04-26 02:23 | 23.52025 | 54.80219 | 21814 ft | 355 kts | 17° |
| 2026-04-26 02:24 | 23.54352 | 54.81108 | 21616 ft | 354 kts | 17° |
| 2026-04-26 02:24 | 23.56674 | 54.81996 | 21421 ft | 354 kts | 17° |
| 2026-04-26 02:24 | 23.58998 | 54.82884 | 21224 ft | 353 kts | 17° |
| 2026-04-26 02:24 | 23.61322 | 54.83717 | 21037 ft | 351 kts | 15° |
| 2026-04-26 02:25 | 23.63624 | 54.84590 | 20829 ft | 350 kts | 22° |
| 2026-04-26 02:25 | 23.65784 | 54.85815 | 20644 ft | 350 kts | 30° |
| 2026-04-26 02:25 | 23.67892 | 54.87112 | 20441 ft | 347 kts | 25° |
| 2026-04-26 02:25 | 23.70026 | 54.88259 | 20185 ft | 348 kts | 23° |
| 2026-04-26 02:26 | 23.72229 | 54.89395 | 19788 ft | 351 kts | 23° |
| 2026-04-26 02:26 | 23.74434 | 54.90527 | 19443 ft | 349 kts | 23° |
| 2026-04-26 02:26 | 23.76620 | 54.91659 | 19120 ft | 346 kts | 24° |
| 2026-04-26 02:26 | 23.78784 | 54.92789 | 18829 ft | 343 kts | 24° |
| 2026-04-26 02:27 | 23.80926 | 54.93916 | 18534 ft | 339 kts | 24° |
| 2026-04-26 02:27 | 23.83040 | 54.95034 | 18240 ft | 336 kts | 24° |
| 2026-04-26 02:27 | 23.85132 | 54.96145 | 17933 ft | 332 kts | 24° |
| 2026-04-26 02:27 | 23.87193 | 54.97241 | 17622 ft | 328 kts | 24° |
| 2026-04-26 02:28 | 23.89241 | 54.98332 | 17311 ft | 325 kts | 24° |
| 2026-04-26 02:28 | 23.91258 | 54.99407 | 17011 ft | 321 kts | 25° |
| 2026-04-26 02:28 | 23.93253 | 55.00471 | 16702 ft | 318 kts | 25° |
| 2026-04-26 02:28 | 23.95231 | 55.01527 | 16411 ft | 314 kts | 25° |
| 2026-04-26 02:29 | 23.97186 | 55.02571 | 16136 ft | 313 kts | 25° |
| 2026-04-26 02:29 | 23.99236 | 55.03664 | 15937 ft | 345 kts | 25° |
| 2026-04-26 02:29 | 24.01456 | 55.04848 | 15639 ft | 359 kts | 25° |
| 2026-04-26 02:29 | 24.03693 | 55.06044 | 15401 ft | 357 kts | 25° |
| 2026-04-26 02:30 | 24.05930 | 55.07241 | 15144 ft | 357 kts | 25° |
| 2026-04-26 02:30 | 24.08164 | 55.08437 | 14873 ft | 358 kts | 25° |
| 2026-04-26 02:30 | 24.10378 | 55.09623 | 14606 ft | 359 kts | 26° |
| 2026-04-26 02:30 | 24.12622 | 55.10825 | 14339 ft | 359 kts | 26° |
| 2026-04-26 02:31 | 24.14864 | 55.12026 | 14070 ft | 358 kts | 26° |
| 2026-04-26 02:31 | 24.17094 | 55.13222 | 13788 ft | 355 kts | 26° |
| 2026-04-26 02:31 | 24.19298 | 55.14404 | 13482 ft | 351 kts | 26° |
| 2026-04-26 02:31 | 24.21473 | 55.15571 | 13174 ft | 346 kts | 26° |
| 2026-04-26 02:32 | 24.23624 | 55.16725 | 12875 ft | 343 kts | 26° |
| 2026-04-26 02:32 | 24.25749 | 55.17866 | 12561 ft | 334 kts | 26° |
| 2026-04-26 02:32 | 24.27770 | 55.18952 | 12241 ft | 316 kts | 25° |
| 2026-04-26 02:32 | 24.29730 | 55.20005 | 11988 ft | 311 kts | 25° |
| 2026-04-26 02:33 | 24.31662 | 55.21043 | 11713 ft | 308 kts | 25° |
| 2026-04-26 02:33 | 24.33572 | 55.22070 | 11448 ft | 304 kts | 25° |
| 2026-04-26 02:33 | 24.35468 | 55.23089 | 11174 ft | 302 kts | 25° |
| 2026-04-26 02:33 | 24.37343 | 55.24097 | 10923 ft | 300 kts | 25° |
| 2026-04-26 02:34 | 24.39213 | 55.25103 | 10663 ft | 298 kts | 25° |
| 2026-04-26 02:34 | 24.41066 | 55.26101 | 10406 ft | 296 kts | 24° |
| 2026-04-26 02:34 | 24.42915 | 55.27096 | 10151 ft | 295 kts | 24° |
| 2026-04-26 02:34 | 24.44748 | 55.28083 | 9901 ft | 293 kts | 24° |
| 2026-04-26 02:35 | 24.46579 | 55.29069 | 9641 ft | 292 kts | 24° |
| 2026-04-26 02:35 | 24.48400 | 55.30050 | 9374 ft | 290 kts | 24° |
| 2026-04-26 02:35 | 24.50200 | 55.31022 | 9107 ft | 286 kts | 24° |
| 2026-04-26 02:35 | 24.51981 | 55.31982 | 8853 ft | 283 kts | 24° |
| 2026-04-26 02:36 | 24.53732 | 55.32927 | 8605 ft | 279 kts | 24° |
| 2026-04-26 02:36 | 24.55440 | 55.33848 | 8356 ft | 275 kts | 24° |
| 2026-04-26 02:36 | 24.57149 | 55.34771 | 8104 ft | 272 kts | 24° |
| 2026-04-26 02:36 | 24.58837 | 55.35682 | 7864 ft | 269 kts | 24° |
| 2026-04-26 02:37 | 24.60501 | 55.36581 | 7641 ft | 265 kts | 24° |
| 2026-04-26 02:37 | 24.62149 | 55.37472 | 7427 ft | 263 kts | 24° |
| 2026-04-26 02:37 | 24.63783 | 55.38355 | 7210 ft | 260 kts | 24° |
| 2026-04-26 02:37 | 24.65406 | 55.39232 | 6999 ft | 258 kts | 24° |
| 2026-04-26 02:38 | 24.67011 | 55.40100 | 6788 ft | 256 kts | 24° |
| 2026-04-26 02:38 | 24.68618 | 55.40968 | 6589 ft | 258 kts | 24° |
| 2026-04-26 02:38 | 24.70238 | 55.41844 | 6396 ft | 261 kts | 24° |
| 2026-04-26 02:38 | 24.71869 | 55.42726 | 6180 ft | 262 kts | 24° |
| 2026-04-26 02:39 | 24.73502 | 55.43611 | 5982 ft | 261 kts | 24° |
| 2026-04-26 02:39 | 24.75131 | 55.44493 | 5760 ft | 261 kts | 24° |
| 2026-04-26 02:39 | 24.76756 | 55.45373 | 5539 ft | 260 kts | 24° |
| 2026-04-26 02:39 | 24.78353 | 55.46239 | 5330 ft | 259 kts | 25° |
| 2026-04-26 02:40 | 24.79987 | 55.47124 | 5119 ft | 258 kts | 25° |
| 2026-04-26 02:40 | 24.81575 | 55.47985 | 4912 ft | 257 kts | 25° |
| 2026-04-26 02:40 | 24.83173 | 55.48852 | 4695 ft | 255 kts | 25° |
| 2026-04-26 02:40 | 24.84750 | 55.49708 | 4543 ft | 248 kts | 25° |
| 2026-04-26 02:41 | 24.86258 | 55.50528 | 4386 ft | 236 kts | 24° |
| 2026-04-26 02:41 | 24.87706 | 55.51314 | 4138 ft | 228 kts | 24° |
| 2026-04-26 02:41 | 24.89098 | 55.52071 | 3925 ft | 218 kts | 24° |
| 2026-04-26 02:41 | 24.90427 | 55.52794 | 3727 ft | 208 kts | 24° |
| 2026-04-26 02:42 | 24.91689 | 55.53479 | 3566 ft | 197 kts | 24° |
| 2026-04-26 02:42 | 24.92902 | 55.54138 | 3382 ft | 193 kts | 23° |
| 2026-04-26 02:42 | 24.94112 | 55.54795 | 3204 ft | 194 kts | 23° |
| 2026-04-26 02:42 | 24.95293 | 55.55438 | 2983 ft | 181 kts | 23° |
| 2026-04-26 02:43 | 24.97312 | 55.56540 | 2536 ft | 146 kts | 22° |
| 2026-04-26 02:43 | 24.98203 | 55.57024 | 2315 ft | 141 kts | 21° |
| 2026-04-26 02:43 | 24.99085 | 55.57502 | 2125 ft | 142 kts | 22° |
| 2026-04-26 02:44 | 24.99973 | 55.57985 | 2085 ft | 143 kts | 22° |
| 2026-04-26 02:44 | 25.00870 | 55.58471 | 2062 ft | 145 kts | 21° |
| 2026-04-26 02:44 | 25.01775 | 55.58961 | 1997 ft | 144 kts | 22° |
| 2026-04-26 02:44 | 25.02661 | 55.59421 | 1994 ft | 141 kts | 13° |
| 2026-04-26 02:45 | 25.03571 | 55.59271 | 2024 ft | 143 kts | 328° |
| 2026-04-26 02:45 | 25.04477 | 55.58872 | 1994 ft | 144 kts | 353° |
| 2026-04-26 02:45 | 25.05458 | 55.58711 | 1984 ft | 140 kts | 345° |
| 2026-04-26 02:45 | 25.06394 | 55.58466 | 1978 ft | 137 kts | 345° |
| 2026-04-26 02:46 | 25.07327 | 55.58222 | 1986 ft | 138 kts | 345° |
| 2026-04-26 02:46 | 25.08258 | 55.57981 | 1991 ft | 137 kts | 345° |
| 2026-04-26 02:46 | 25.09189 | 55.57740 | 1997 ft | 138 kts | 345° |
| 2026-04-26 02:46 | 25.10122 | 55.57498 | 1985 ft | 138 kts | 345° |
| 2026-04-26 02:47 | 25.11058 | 55.57256 | 1990 ft | 138 kts | 345° |
| 2026-04-26 02:47 | 25.11993 | 55.57015 | 1994 ft | 138 kts | 344° |
| 2026-04-26 02:47 | 25.12931 | 55.56772 | 1994 ft | 138 kts | 344° |
| 2026-04-26 02:47 | 25.13765 | 55.56301 | 1981 ft | 134 kts | 319° |
| 2026-04-26 02:48 | 25.14426 | 55.55550 | 1991 ft | 138 kts | 308° |
| 2026-04-26 02:48 | 25.14990 | 55.54693 | 1992 ft | 138 kts | 307° |
| 2026-04-26 02:48 | 25.15555 | 55.53850 | 1985 ft | 135 kts | 306° |
| 2026-04-26 02:48 | 25.16082 | 55.52989 | 1986 ft | 135 kts | 304° |
| 2026-04-26 02:49 | 25.16591 | 55.52110 | 1992 ft | 138 kts | 304° |
| 2026-04-26 02:49 | 25.17098 | 55.51210 | 1995 ft | 138 kts | 303° |
| 2026-04-26 02:49 | 25.17603 | 55.50305 | 1986 ft | 138 kts | 303° |
| 2026-04-26 02:49 | 25.18104 | 55.49404 | 1998 ft | 137 kts | 303° |
| 2026-04-26 02:50 | 25.18607 | 55.48493 | 1859 ft | 140 kts | 303° |
| 2026-04-26 02:50 | 25.19111 | 55.47581 | 1684 ft | 138 kts | 303° |
| 2026-04-26 02:50 | 25.19606 | 55.46688 | 1512 ft | 135 kts | 302° |
| 2026-04-26 02:50 | 25.20099 | 55.45796 | 1355 ft | 138 kts | 302° |
| 2026-04-26 02:51 | 25.20603 | 55.44885 | 1182 ft | 140 kts | 302° |
| 2026-04-26 02:51 | 25.21110 | 55.43965 | 1007 ft | 141 kts | 301° |
| 2026-04-26 02:51 | 25.21611 | 55.43034 | 782 ft | 143 kts | 300° |
| 2026-04-26 02:51 | 25.22134 | 55.42101 | 628 ft | 144 kts | 301° |
| 2026-04-26 02:52 | 25.22672 | 55.41142 | 427 ft | 148 kts | 300° |
| 2026-04-26 02:52 | 25.23206 | 55.40181 | 236 ft | 146 kts | 301° |
| 2026-04-26 02:52 | 25.23736 | 55.39228 | 99 ft | 145 kts | 301° |
| 2026-04-26 02:52 | 25.24229 | 55.38338 | 52 ft | 121 kts | 301° |
| 2026-04-26 02:53 | 25.24577 | 55.37709 | 44 ft | 71 kts | 301° |
| 2026-04-26 02:53 | 25.24748 | 55.37355 | 36 ft | 50 kts | 290° |
| 2026-04-26 02:53 | 25.24787 | 55.37081 | 31 ft | 21 kts | 271° |
| 2026-04-26 02:53 | 25.24806 | 55.36940 | 29 ft | 19 kts | 291° |
| 2026-04-26 02:54 | 25.24861 | 55.36795 | 28 ft | 22 kts | 282° |
| 2026-04-26 02:54 | 25.24880 | 55.36682 | 27 ft | 9 kts | 262° |
| 2026-04-26 02:54 | 25.24829 | 55.36622 | 27 ft | 13 kts | 213° |
| 2026-04-26 02:54 | 25.24764 | 55.36579 | 27 ft | 8 kts | 211° |
| 2026-04-26 02:55 | 25.24738 | 55.36561 | 27 ft | 0 kts | 211° |